Observation data for Tarzan on 04/07/2020      Previous  Date  Next       Current Mesonet Observations  Soil Data  Daily Summary Page  Observations in Plain Language
KTA1 070500Z 20009KT 19/11 A2999 RMK A01 T01900109  RH  059%=      5-min Rain = 0
KTA1 070501Z 20009KT 19/11 A2999 RMK A01 T01900110  RH  059%=      5-min Rain = 0
KTA1 070502Z 20009KT 19/11 A30 RMK A01 T01900110  RH  060%=      5-min Rain = 0
KTA1 070503Z 20009KT 19/11 A2999 RMK A01 T01900110  RH  060%=      5-min Rain = 0
KTA1 070504Z 20009KT 19/11 A2999 RMK A01 T01900109  RH  060%=      5-min Rain = 0
KTA1 070505Z 20009KT 19/11 A30 RMK A01 T01890109  RH  060%=      5-min Rain = 0
KTA1 070506Z 21008KT 19/11 A2999 RMK A01 T01890109  RH  060%=      5-min Rain = 0
KTA1 070507Z 21010KT 19/11 A2999 RMK A01 T01890109  RH  060%=      5-min Rain = 0
KTA1 070508Z 21009KT 19/11 A2999 RMK A01 T01890109  RH  060%=      5-min Rain = 0
KTA1 070509Z 20009KT 19/11 A2999 RMK A01 T01880108  RH  060%=      5-min Rain = 0
KTA1 070510Z 20009KT 19/11 A2999 RMK A01 T01890108  RH  060%=      5-min Rain = 0
KTA1 070511Z 21009KT 19/11 A2999 RMK A01 T01890109  RH  060%=      5-min Rain = 0
KTA1 070512Z 20009KT 19/11 A2999 RMK A01 T01880108  RH  060%=      5-min Rain = 0
KTA1 070513Z 21011KT 19/11 A2999 RMK A01 T01880108  RH  060%=      5-min Rain = 0
KTA1 070514Z 20009KT 19/11 A2999 RMK A01 T01880108  RH  059%=      5-min Rain = 0
KTA1 070515Z 21010KT 19/11 A2999 RMK A01 T01880108  RH  059%=      5-min Rain = 0
KTA1 070516Z 21010KT 19/11 A2999 RMK A01 T01880108  RH  059%=      5-min Rain = 0
KTA1 070517Z 21010KT 19/11 A2999 RMK A01 T01880108  RH  059%=      5-min Rain = 0
KTA1 070518Z 20010KT 19/11 A2999 RMK A01 T01880107  RH  059%=      5-min Rain = 0
KTA1 070519Z 21011KT 19/11 A2999 RMK A01 T01880107  RH  060%=      5-min Rain = 0
KTA1 070520Z 20010KT 19/11 A2999 RMK A01 T01870107  RH  060%=      5-min Rain = 0
KTA1 070521Z 20010KT 19/11 A2999 RMK A01 T01870107  RH  060%=      5-min Rain = 0
KTA1 070522Z 20010KT 19/11 A2999 RMK A01 T01870107  RH  060%=      5-min Rain = 0
KTA1 070523Z 20010KT 19/11 A2999 RMK A01 T01870107  RH  060%=      5-min Rain = 0
KTA1 070524Z 20011KT 19/11 A2999 RMK A01 T01860107  RH  060%=      5-min Rain = 0
KTA1 070525Z 21011KT 19/11 A2999 RMK A01 T01860107  RH  060%=      5-min Rain = 0
KTA1 070526Z 21011KT 19/11 A2999 RMK A01 T01860107  RH  060%=      5-min Rain = 0
KTA1 070527Z 21009KT 19/11 A2999 RMK A01 T01860107  RH  060%=      5-min Rain = 0
KTA1 070528Z 21011KT 19/11 A2999 RMK A01 T01850107  RH  060%=      5-min Rain = 0
KTA1 070529Z 21011KT 19/11 A2999 RMK A01 T01850107  RH  060%=      5-min Rain = 0
KTA1 070530Z 21011KT 19/11 A2999 RMK A01 T01850107  RH  060%=      5-min Rain = 0
KTA1 070531Z 21010KT 19/11 A2999 RMK A01 T01850107  RH  060%=      5-min Rain = 0
KTA1 070532Z 21010KT 18/11 A2999 RMK A01 T01840107  RH  060%=      5-min Rain = 0
KTA1 070533Z 21011KT 19/11 A2999 RMK A01 T01850107  RH  061%=      5-min Rain = 0
KTA1 070534Z 20011KT 18/11 A2999 RMK A01 T01840107  RH  061%=      5-min Rain = 0
KTA1 070535Z 20010KT 18/11 A2999 RMK A01 T01840107  RH  061%=      5-min Rain = 0
KTA1 070536Z 20010KT 18/11 A2999 RMK A01 T01830107  RH  061%=      5-min Rain = 0
KTA1 070537Z 20010KT 18/11 A2999 RMK A01 T01820107  RH  061%=      5-min Rain = 0
KTA1 070538Z 20011KT 18/11 A2999 RMK A01 T01820107  RH  062%=      5-min Rain = 0
KTA1 070539Z 21010KT 18/11 A2999 RMK A01 T01810107  RH  062%=      5-min Rain = 0
KTA1 070540Z 21010KT 18/11 A2999 RMK A01 T01810107  RH  062%=      5-min Rain = 0
KTA1 070541Z 21010KT 18/11 A2999 RMK A01 T01810107  RH  062%=      5-min Rain = 0
KTA1 070542Z 21010KT 18/11 A2999 RMK A01 T01810107  RH  062%=      5-min Rain = 0
KTA1 070543Z 21010KT 18/11 A2999 RMK A01 T01800107  RH  062%=      5-min Rain = 0
KTA1 070544Z 21011KT 18/11 A2999 RMK A01 T01800107  RH  062%=      5-min Rain = 0
KTA1 070545Z 21011KT 18/11 A2999 RMK A01 T01800106  RH  062%=      5-min Rain = 0
KTA1 070546Z 21010KT 18/11 A2999 RMK A01 T01800106  RH  062%=      5-min Rain = 0
KTA1 070547Z 21010KT 18/11 A2999 RMK A01 T01800107  RH  062%=      5-min Rain = 0
KTA1 070548Z 21010KT 18/11 A2999 RMK A01 T01790107  RH  062%=      5-min Rain = 0
KTA1 070549Z 21010KT 18/11 A2999 RMK A01 T01790106  RH  063%=      5-min Rain = 0
KTA1 070550Z 20010KT 18/11 A2999 RMK A01 T01790107  RH  063%=      5-min Rain = 0
KTA1 070551Z 21009KT 18/11 A2999 RMK A01 T01780107  RH  063%=      5-min Rain = 0
KTA1 070552Z 21010KT 18/11 A2999 RMK A01 T01780107  RH  063%=      5-min Rain = 0
KTA1 070553Z 21009KT 18/11 A2999 RMK A01 T01780107  RH  063%=      5-min Rain = 0
KTA1 070554Z 21010KT 18/11 A2999 RMK A01 T01770106  RH  063%=      5-min Rain = 0
KTA1 070555Z 21010KT 18/11 A2999 RMK A01 T01770107  RH  063%=      5-min Rain = 0
KTA1 070556Z 21009KT 18/11 A2999 RMK A01 T01770107  RH  063%=      5-min Rain = 0
KTA1 070557Z 21009KT 18/11 A2999 RMK A01 T01760107  RH  064%=      5-min Rain = 0
KTA1 070558Z 21008KT 18/11 A2999 RMK A01 T01760107  RH  064%=      5-min Rain = 0
KTA1 070559Z 21009KT 18/11 A2999 RMK A01 T01750107  RH  064%=      5-min Rain = 0
KTA1 070600Z 21009KT 18/11 A2999 RMK A01 T01750107  RH  064%=      5-min Rain = 0
KTA1 070601Z 21009KT 18/11 A2999 RMK A01 T01750106  RH  064%=      5-min Rain = 0
KTA1 070602Z 21008KT 18/11 A2999 RMK A01 T01750107  RH  064%=      5-min Rain = 0
KTA1 070603Z 21009KT 17/11 A2999 RMK A01 T01740107  RH  064%=      5-min Rain = 0
KTA1 070604Z 21008KT 17/11 A2999 RMK A01 T01740107  RH  065%=      5-min Rain = 0
KTA1 070605Z 21008KT 17/11 A2999 RMK A01 T01730107  RH  065%=      5-min Rain = 0
KTA1 070606Z 21008KT 17/11 A30 RMK A01 T01730107  RH  065%=      5-min Rain = 0
KTA1 070607Z 21008KT 17/11 A30 RMK A01 T01730107  RH  065%=      5-min Rain = 0
KTA1 070608Z 21008KT 17/11 A30 RMK A01 T01730107  RH  065%=      5-min Rain = 0
KTA1 070609Z 21008KT 17/11 A30 RMK A01 T01730107  RH  065%=      5-min Rain = 0
KTA1 070610Z 22008KT 17/11 A30 RMK A01 T01720107  RH  065%=      5-min Rain = 0
KTA1 070611Z 21007KT 17/11 A30 RMK A01 T01720107  RH  065%=      5-min Rain = 0
KTA1 070612Z 21007KT 17/11 A30 RMK A01 T01720107  RH  066%=      5-min Rain = 0
KTA1 070613Z 21008KT 17/11 A30 RMK A01 T01720107  RH  066%=      5-min Rain = 0
KTA1 070614Z 21008KT 17/11 A30 RMK A01 T01720107  RH  066%=      5-min Rain = 0
KTA1 070615Z 21008KT 17/11 A30 RMK A01 T01720107  RH  066%=      5-min Rain = 0
KTA1 070616Z 21007KT 17/11 A30 RMK A01 T01710107  RH  066%=      5-min Rain = 0
KTA1 070617Z 21008KT 17/11 A30 RMK A01 T01710107  RH  066%=      5-min Rain = 0
KTA1 070618Z 21008KT 17/11 A30 RMK A01 T01710108  RH  066%=      5-min Rain = 0
KTA1 070619Z 21007KT 17/11 A30 RMK A01 T01700107  RH  066%=      5-min Rain = 0
KTA1 070620Z 21007KT 17/11 A30 RMK A01 T01690107  RH  067%=      5-min Rain = 0
KTA1 070621Z 21007KT 17/11 A30 RMK A01 T01690107  RH  067%=      5-min Rain = 0
KTA1 070622Z 20007KT 17/11 A30 RMK A01 T01680107  RH  067%=      5-min Rain = 0
KTA1 070623Z 20006KT 17/11 A30 RMK A01 T01670107  RH  067%=      5-min Rain = 0
KTA1 070624Z 20006KT 17/11 A30 RMK A01 T01670107  RH  068%=      5-min Rain = 0
KTA1 070625Z 20006KT 17/11 A30 RMK A01 T01660107  RH  068%=      5-min Rain = 0
KTA1 070626Z 20006KT 17/11 A30 RMK A01 T01650107  RH  068%=      5-min Rain = 0
KTA1 070627Z 20006KT 16/11 A30 RMK A01 T01640107  RH  069%=      5-min Rain = 0
KTA1 070628Z 19006KT 16/11 A30 RMK A01 T01630106  RH  069%=      5-min Rain = 0
KTA1 070629Z 19006KT 16/11 A30 RMK A01 T01630107  RH  069%=      5-min Rain = 0
KTA1 070630Z 19006KT 16/11 A30 RMK A01 T01630107  RH  069%=      5-min Rain = 0
KTA1 070631Z 19005KT 16/11 A30 RMK A01 T01620107  RH  070%=      5-min Rain = 0
KTA1 070632Z 19005KT 16/11 A30 RMK A01 T01620107  RH  070%=      5-min Rain = 0
KTA1 070633Z 19005KT 16/11 A30 RMK A01 T01610107  RH  070%=      5-min Rain = 0
KTA1 070634Z 20005KT 16/11 A30 RMK A01 T01610107  RH  070%=      5-min Rain = 0
KTA1 070635Z 20006KT 16/11 A30 RMK A01 T01600107  RH  070%=      5-min Rain = 0
KTA1 070636Z 20005KT 16/11 A30 RMK A01 T01600107  RH  071%=      5-min Rain = 0
KTA1 070637Z 20006KT 16/11 A30 RMK A01 T01590107  RH  071%=      5-min Rain = 0
KTA1 070638Z 20006KT 16/11 A30 RMK A01 T01590107  RH  071%=      5-min Rain = 0
KTA1 070639Z 21006KT 16/11 A30 RMK A01 T01590106  RH  071%=      5-min Rain = 0
KTA1 070640Z 21006KT 16/11 A30 RMK A01 T01590106  RH  071%=      5-min Rain = 0
KTA1 070641Z 21006KT 16/11 A30 RMK A01 T01590107  RH  071%=      5-min Rain = 0
KTA1 070642Z 21006KT 16/11 A30 RMK A01 T01600107  RH  071%=      5-min Rain = 0
KTA1 070643Z 21006KT 16/11 A30 RMK A01 T01600107  RH  071%=      5-min Rain = 0
KTA1 070644Z 21006KT 16/11 A30 RMK A01 T01600107  RH  071%=      5-min Rain = 0
KTA1 070645Z 21006KT 16/11 A30 RMK A01 T01600107  RH  071%=      5-min Rain = 0
KTA1 070646Z 22006KT 16/11 A30 RMK A01 T01600107  RH  071%=      5-min Rain = 0
KTA1 070647Z 22006KT 16/11 A30 RMK A01 T01600107  RH  071%=      5-min Rain = 0
KTA1 070648Z 22006KT 16/11 A30 RMK A01 T01600108  RH  071%=      5-min Rain = 0
KTA1 070649Z 22006KT 16/11 A30 RMK A01 T01600108  RH  071%=      5-min Rain = 0
KTA1 070650Z 22006KT 16/11 A30 RMK A01 T01600108  RH  071%=      5-min Rain = 0
KTA1 070651Z 22005KT 16/11 A30 RMK A01 T01590108  RH  071%=      5-min Rain = 0
KTA1 070652Z 22006KT 16/11 A30 RMK A01 T01590108  RH  071%=      5-min Rain = 0
KTA1 070653Z 22005KT 16/11 A30 RMK A01 T01590108  RH  071%=      5-min Rain = 0
KTA1 070654Z 22006KT 16/11 A30 RMK A01 T01590107  RH  071%=      5-min Rain = 0
KTA1 070655Z 22005KT 16/11 A30 RMK A01 T01580107  RH  072%=      5-min Rain = 0
KTA1 070656Z 22005KT 16/11 A30 RMK A01 T01580108  RH  072%=      5-min Rain = 0
KTA1 070657Z 22006KT 16/11 A30 RMK A01 T01570107  RH  072%=      5-min Rain = 0
KTA1 070658Z 21006KT 16/11 A30 RMK A01 T01570108  RH  072%=      5-min Rain = 0
KTA1 070659Z 21006KT 16/11 A30 RMK A01 T01560108  RH  073%=      5-min Rain = 0
KTA1 070700Z 22006KT 16/11 A30 RMK A01 T01560108  RH  073%=      5-min Rain = 0
KTA1 070701Z 21006KT 16/11 A30 RMK A01 T01550107  RH  073%=      5-min Rain = 0
KTA1 070702Z 22006KT 16/11 A30 RMK A01 T01560108  RH  073%=      5-min Rain = 0
KTA1 070703Z 22006KT 16/11 A30 RMK A01 T01560108  RH  073%=      5-min Rain = 0
KTA1 070704Z 22006KT 16/11 A30 RMK A01 T01550107  RH  073%=      5-min Rain = 0
KTA1 070705Z 21006KT 16/11 A30 RMK A01 T01550107  RH  073%=      5-min Rain = 0
KTA1 070706Z 22007KT 16/11 A30 RMK A01 T01560108  RH  073%=      5-min Rain = 0
KTA1 070707Z 22006KT 16/11 A30 RMK A01 T01550108  RH  073%=      5-min Rain = 0
KTA1 070708Z 22006KT 15/11 A30 RMK A01 T01540107  RH  074%=      5-min Rain = 0
KTA1 070709Z 22006KT 15/11 A30 RMK A01 T01530107  RH  074%=      5-min Rain = 0
KTA1 070710Z 22006KT 15/11 A30 RMK A01 T01520107  RH  074%=      5-min Rain = 0
KTA1 070711Z 23006KT 15/11 A30 RMK A01 T01510107  RH  075%=      5-min Rain = 0
KTA1 070712Z 23006KT 15/11 A30 RMK A01 T01500107  RH  076%=      5-min Rain = 0
KTA1 070713Z 23006KT 15/11 A30 RMK A01 T01480107  RH  076%=      5-min Rain = 0
KTA1 070714Z 23006KT 15/11 A2999 RMK A01 T01470107  RH  077%=      5-min Rain = 0
KTA1 070715Z 24006KT 15/11 A2999 RMK A01 T01460107  RH  077%=      5-min Rain = 0
KTA1 070716Z 24007KT 15/11 A2999 RMK A01 T01460107  RH  078%=      5-min Rain = 0
KTA1 070717Z 23008KT 15/11 A2999 RMK A01 T01450107  RH  078%=      5-min Rain = 0
KTA1 070718Z 23007KT 14/11 A2999 RMK A01 T01440108  RH  079%=      5-min Rain = 0
KTA1 070719Z 24006KT 14/11 A2999 RMK A01 T01440107  RH  079%=      5-min Rain = 0
KTA1 070720Z 24006KT 14/11 A2999 RMK A01 T01440108  RH  079%=      5-min Rain = 0
KTA1 070721Z 24006KT 14/11 A2999 RMK A01 T01430108  RH  079%=      5-min Rain = 0
KTA1 070722Z 24007KT 14/11 A2999 RMK A01 T01430108  RH  080%=      5-min Rain = 0
KTA1 070723Z 23007KT 14/11 A2999 RMK A01 T01420107  RH  080%=      5-min Rain = 0
KTA1 070724Z 23007KT 14/11 A2999 RMK A01 T01420108  RH  080%=      5-min Rain = 0
KTA1 070725Z 23007KT 14/11 A2999 RMK A01 T01420108  RH  080%=      5-min Rain = 0
KTA1 070726Z 23007KT 14/11 A2999 RMK A01 T01420108  RH  080%=      5-min Rain = 0
KTA1 070727Z 24006KT 14/11 A2999 RMK A01 T01420108  RH  080%=      5-min Rain = 0
KTA1 070728Z 23007KT 14/11 A2999 RMK A01 T01420108  RH  080%=      5-min Rain = 0
KTA1 070729Z 23007KT 14/11 A2999 RMK A01 T01420107  RH  080%=      5-min Rain = 0
KTA1 070730Z 23007KT 14/11 A2999 RMK A01 T01420107  RH  079%=      5-min Rain = 0
KTA1 070731Z 23006KT 14/11 A30 RMK A01 T01420107  RH  079%=      5-min Rain = 0
KTA1 070732Z 23007KT 14/11 A30 RMK A01 T01420107  RH  079%=      5-min Rain = 0
KTA1 070733Z 23007KT 14/11 A30 RMK A01 T01410107  RH  080%=      5-min Rain = 0
KTA1 070734Z 23008KT 14/11 A2999 RMK A01 T01410107  RH  080%=      5-min Rain = 0
KTA1 070735Z 23007KT 14/11 A2999 RMK A01 T01410107  RH  080%=      5-min Rain = 0
KTA1 070736Z 23007KT 14/11 A2999 RMK A01 T01410107  RH  080%=      5-min Rain = 0
KTA1 070737Z 24007KT 14/11 A2999 RMK A01 T01400106  RH  080%=      5-min Rain = 0
KTA1 070738Z 24006KT 14/11 A2999 RMK A01 T01400107  RH  080%=      5-min Rain = 0
KTA1 070739Z 23008KT 14/11 A2999 RMK A01 T01400107  RH  080%=      5-min Rain = 0
KTA1 070740Z 23008KT 14/11 A2999 RMK A01 T01410107  RH  080%=      5-min Rain = 0
KTA1 070741Z 22008KT 14/11 A2999 RMK A01 T01400107  RH  080%=      5-min Rain = 0
KTA1 070742Z 23008KT 14/11 A2999 RMK A01 T01400107  RH  080%=      5-min Rain = 0
KTA1 070743Z 23008KT 14/11 A2999 RMK A01 T01410107  RH  080%=      5-min Rain = 0
KTA1 070744Z 23007KT 14/11 A2999 RMK A01 T01420107  RH  080%=      5-min Rain = 0
KTA1 070745Z 23007KT 14/11 A2999 RMK A01 T01420107  RH  079%=      5-min Rain = 0
KTA1 070746Z 23007KT 14/11 A2999 RMK A01 T01420107  RH  080%=      5-min Rain = 0
KTA1 070747Z 23007KT 14/11 A2999 RMK A01 T01410107  RH  080%=      5-min Rain = 0
KTA1 070748Z 23006KT 14/11 A2999 RMK A01 T01410107  RH  080%=      5-min Rain = 0
KTA1 070749Z 24007KT 14/11 A2999 RMK A01 T01410108  RH  080%=      5-min Rain = 0
KTA1 070750Z 23006KT 14/11 A2999 RMK A01 T01410108  RH  080%=      5-min Rain = 0
KTA1 070751Z 23007KT 14/11 A2999 RMK A01 T01400107  RH  080%=      5-min Rain = 0
KTA1 070752Z 24007KT 14/11 A2999 RMK A01 T01400108  RH  081%=      5-min Rain = 0
KTA1 070753Z 23007KT 14/11 A2999 RMK A01 T01400107  RH  081%=      5-min Rain = 0
KTA1 070754Z 23007KT 14/11 A2999 RMK A01 T01400107  RH  080%=      5-min Rain = 0
KTA1 070755Z 23007KT 14/11 A2999 RMK A01 T01410108  RH  080%=      5-min Rain = 0
KTA1 070756Z 23007KT 14/11 A2999 RMK A01 T01410107  RH  080%=      5-min Rain = 0
KTA1 070757Z 23007KT 14/11 A2999 RMK A01 T01420108  RH  080%=      5-min Rain = 0
KTA1 070758Z 24007KT 14/11 A2999 RMK A01 T01430108  RH  080%=      5-min Rain = 0
KTA1 070759Z 23007KT 14/11 A2999 RMK A01 T01430108  RH  079%=      5-min Rain = 0
KTA1 070800Z 23007KT 14/11 A2999 RMK A01 T01430108  RH  079%=      5-min Rain = 0
KTA1 070801Z 24007KT 14/11 A2999 RMK A01 T01430108  RH  079%=      5-min Rain = 0
KTA1 070802Z 24007KT 14/11 A2999 RMK A01 T01430108  RH  079%=      5-min Rain = 0
KTA1 070803Z 24006KT 14/11 A2999 RMK A01 T01430108  RH  079%=      5-min Rain = 0
KTA1 070804Z 23006KT 14/11 A2999 RMK A01 T01430108  RH  079%=      5-min Rain = 0
KTA1 070805Z 23007KT 14/11 A2999 RMK A01 T01430108  RH  079%=      5-min Rain = 0
KTA1 070806Z 23007KT 14/11 A2999 RMK A01 T01430108  RH  079%=      5-min Rain = 0
KTA1 070807Z 23006KT 14/11 A2999 RMK A01 T01430108  RH  080%=      5-min Rain = 0
KTA1 070808Z 23006KT 14/11 A2999 RMK A01 T01430109  RH  080%=      5-min Rain = 0
KTA1 070809Z 23007KT 14/11 A2999 RMK A01 T01430108  RH  080%=      5-min Rain = 0
KTA1 070810Z 23007KT 14/11 A2999 RMK A01 T01430109  RH  080%=      5-min Rain = 0
KTA1 070811Z 23007KT 14/11 A2999 RMK A01 T01440109  RH  079%=      5-min Rain = 0
KTA1 070812Z 24007KT 14/11 A2999 RMK A01 T01440109  RH  079%=      5-min Rain = 0
KTA1 070813Z 24007KT 15/11 A2999 RMK A01 T01450109  RH  079%=      5-min Rain = 0
KTA1 070814Z 24007KT 15/11 A2998 RMK A01 T01460109  RH  079%=      5-min Rain = 0
KTA1 070815Z 24006KT 15/11 A2998 RMK A01 T01460109  RH  078%=      5-min Rain = 0
KTA1 070816Z 24007KT 15/11 A2998 RMK A01 T01460109  RH  078%=      5-min Rain = 0
KTA1 070817Z 24007KT 15/11 A2998 RMK A01 T01470109  RH  078%=      5-min Rain = 0
KTA1 070818Z 24007KT 15/11 A2998 RMK A01 T01470109  RH  078%=      5-min Rain = 0
KTA1 070819Z 25006KT 15/11 A2998 RMK A01 T01480110  RH  078%=      5-min Rain = 0
KTA1 070820Z 24006KT 15/11 A2998 RMK A01 T01480110  RH  078%=      5-min Rain = 0
KTA1 070821Z 24007KT 15/11 A2998 RMK A01 T01480109  RH  078%=      5-min Rain = 0
KTA1 070822Z 24006KT 15/11 A2998 RMK A01 T01480110  RH  078%=      5-min Rain = 0
KTA1 070823Z 24007KT 15/11 A2998 RMK A01 T01480110  RH  078%=      5-min Rain = 0
KTA1 070824Z 24007KT 15/11 A2998 RMK A01 T01490109  RH  077%=      5-min Rain = 0
KTA1 070825Z 24007KT 15/11 A2998 RMK A01 T01490110  RH  077%=      5-min Rain = 0
KTA1 070826Z 24007KT 15/11 A2998 RMK A01 T01490109  RH  077%=      5-min Rain = 0
KTA1 070827Z 24007KT 15/11 A2998 RMK A01 T01490109  RH  077%=      5-min Rain = 0
KTA1 070828Z 24007KT 15/11 A2998 RMK A01 T01490109  RH  077%=      5-min Rain = 0
KTA1 070829Z 24008KT 15/11 A2998 RMK A01 T01490109  RH  077%=      5-min Rain = 0
KTA1 070830Z 23008KT 15/11 A2998 RMK A01 T01490109  RH  077%=      5-min Rain = 0
KTA1 070831Z 23008KT 15/11 A2998 RMK A01 T01490109  RH  077%=      5-min Rain = 0
KTA1 070832Z 24008KT 15/11 A2998 RMK A01 T01490109  RH  077%=      5-min Rain = 0
KTA1 070833Z 24008KT 15/11 A2998 RMK A01 T01490109  RH  077%=      5-min Rain = 0
KTA1 070834Z 24007KT 15/11 A2998 RMK A01 T01500110  RH  077%=      5-min Rain = 0
KTA1 070835Z 23008KT 15/11 A2998 RMK A01 T01500110  RH  077%=      5-min Rain = 0
KTA1 070836Z 23008KT 15/11 A2998 RMK A01 T01500109  RH  077%=      5-min Rain = 0
KTA1 070837Z 24008KT 15/11 A2998 RMK A01 T01500109  RH  077%=      5-min Rain = 0
KTA1 070838Z 24008KT 15/11 A2998 RMK A01 T01500109  RH  076%=      5-min Rain = 0
KTA1 070839Z 24008KT 15/11 A2998 RMK A01 T01500109  RH  076%=      5-min Rain = 0
KTA1 070840Z 23008KT 15/11 A2998 RMK A01 T01500109  RH  076%=      5-min Rain = 0
KTA1 070841Z 23009KT 15/11 A2998 RMK A01 T01500109  RH  076%=      5-min Rain = 0
KTA1 070842Z 23008KT 15/11 A2998 RMK A01 T01500109  RH  076%=      5-min Rain = 0
KTA1 070843Z 24009KT 15/11 A2998 RMK A01 T01510109  RH  076%=      5-min Rain = 0
KTA1 070844Z 24009KT 15/11 A2998 RMK A01 T01500109  RH  076%=      5-min Rain = 0
KTA1 070845Z 24009KT 15/11 A2998 RMK A01 T01510109  RH  076%=      5-min Rain = 0
KTA1 070846Z 24010KT 15/11 A2998 RMK A01 T01510109  RH  076%=      5-min Rain = 0
KTA1 070847Z 24009KT 15/11 A2998 RMK A01 T01510109  RH  076%=      5-min Rain = 0
KTA1 070848Z 24009KT 15/11 A2998 RMK A01 T01510109  RH  076%=      5-min Rain = 0
KTA1 070849Z 24009KT 15/11 A2998 RMK A01 T01520109  RH  075%=      5-min Rain = 0
KTA1 070850Z 24009KT 15/11 A2998 RMK A01 T01520108  RH  075%=      5-min Rain = 0
KTA1 070851Z 24008KT 15/11 A2997 RMK A01 T01520108  RH  075%=      5-min Rain = 0
KTA1 070852Z 24008KT 15/11 A2997 RMK A01 T01520108  RH  075%=      5-min Rain = 0
KTA1 070853Z 25009KT 15/11 A2997 RMK A01 T01520108  RH  075%=      5-min Rain = 0
KTA1 070854Z 25009KT 15/11 A2997 RMK A01 T01520108  RH  075%=      5-min Rain = 0
KTA1 070855Z 25008KT 15/11 A2997 RMK A01 T01520108  RH  075%=      5-min Rain = 0
KTA1 070856Z 25008KT 15/11 A2997 RMK A01 T01520108  RH  075%=      5-min Rain = 0
KTA1 070857Z 25008KT 15/11 A2997 RMK A01 T01510108  RH  075%=      5-min Rain = 0
KTA1 070858Z 25008KT 15/11 A2997 RMK A01 T01510108  RH  075%=      5-min Rain = 0
KTA1 070859Z 25008KT 15/11 A2997 RMK A01 T01510108  RH  075%=      5-min Rain = 0
KTA1 070900Z 25008KT 15/11 A2997 RMK A01 T01500107  RH  075%=      5-min Rain = 0
KTA1 070901Z 25009KT 15/11 A2997 RMK A01 T01500107  RH  075%=      5-min Rain = 0
KTA1 070902Z 25008KT 15/11 A2997 RMK A01 T01500107  RH  075%=      5-min Rain = 0
KTA1 070903Z 25008KT 15/11 A2997 RMK A01 T01500107  RH  075%=      5-min Rain = 0
KTA1 070904Z 25009KT 15/11 A2997 RMK A01 T01500107  RH  075%=      5-min Rain = 0
KTA1 070905Z 25009KT 15/11 A2997 RMK A01 T01500106  RH  075%=      5-min Rain = 0
KTA1 070906Z 25008KT 15/11 A2997 RMK A01 T01500106  RH  075%=      5-min Rain = 0
KTA1 070907Z 25009KT 15/11 A2997 RMK A01 T01500106  RH  075%=      5-min Rain = 0
KTA1 070908Z 25009KT 15/11 A2997 RMK A01 T01500106  RH  075%=      5-min Rain = 0
KTA1 070909Z 25009KT 15/11 A2997 RMK A01 T01500106  RH  075%=      5-min Rain = 0
KTA1 070910Z 25008KT 15/11 A2997 RMK A01 T01500105  RH  074%=      5-min Rain = 0
KTA1 070911Z 25008KT 15/11 A2997 RMK A01 T01500105  RH  074%=      5-min Rain = 0
KTA1 070912Z 26008KT 15/10 A2997 RMK A01 T01500104  RH  074%=      5-min Rain = 0
KTA1 070913Z 26008KT 15/10 A2997 RMK A01 T01500103  RH  074%=      5-min Rain = 0
KTA1 070914Z 26007KT 15/10 A2997 RMK A01 T01500103  RH  073%=      5-min Rain = 0
KTA1 070915Z 26007KT 15/10 A2997 RMK A01 T01500103  RH  074%=      5-min Rain = 0
KTA1 070916Z 27006KT 15/10 A2997 RMK A01 T01490103  RH  074%=      5-min Rain = 0
KTA1 070917Z 27006KT 15/10 A2997 RMK A01 T01480103  RH  074%=      5-min Rain = 0
KTA1 070918Z 26007KT 15/10 A2997 RMK A01 T01480103  RH  074%=      5-min Rain = 0
KTA1 070919Z 26007KT 15/10 A2997 RMK A01 T01470103  RH  075%=      5-min Rain = 0
KTA1 070920Z 25008KT 15/10 A2997 RMK A01 T01460103  RH  075%=      5-min Rain = 0
KTA1 070921Z 25008KT 15/10 A2997 RMK A01 T01450103  RH  076%=      5-min Rain = 0
KTA1 070922Z 25008KT 15/10 A2997 RMK A01 T01450103  RH  076%=      5-min Rain = 0
KTA1 070923Z 25008KT 14/10 A2997 RMK A01 T01440103  RH  076%=      5-min Rain = 0
KTA1 070924Z 25007KT 14/10 A2997 RMK A01 T01430103  RH  076%=      5-min Rain = 0
KTA1 070925Z 25007KT 14/10 A2997 RMK A01 T01430103  RH  077%=      5-min Rain = 0
KTA1 070926Z 25008KT 14/10 A2997 RMK A01 T01420103  RH  077%=      5-min Rain = 0
KTA1 070927Z 25008KT 14/10 A2997 RMK A01 T01410102  RH  077%=      5-min Rain = 0
KTA1 070928Z 25007KT 14/10 A2997 RMK A01 T01410102  RH  078%=      5-min Rain = 0
KTA1 070929Z 25007KT 14/10 A2997 RMK A01 T01400102  RH  078%=      5-min Rain = 0
KTA1 070930Z 25007KT 14/10 A2997 RMK A01 T01400102  RH  078%=      5-min Rain = 0
KTA1 070931Z 25007KT 14/10 A2997 RMK A01 T01390102  RH  078%=      5-min Rain = 0
KTA1 070932Z 25007KT 14/10 A2997 RMK A01 T01390102  RH  078%=      5-min Rain = 0
KTA1 070933Z 25007KT 14/10 A2997 RMK A01 T01380102  RH  079%=      5-min Rain = 0
KTA1 070934Z 25007KT 14/10 A2997 RMK A01 T01380102  RH  079%=      5-min Rain = 0
KTA1 070935Z 24007KT 14/10 A2997 RMK A01 T01370101  RH  079%=      5-min Rain = 0
KTA1 070936Z 25007KT 14/10 A2997 RMK A01 T01370102  RH  079%=      5-min Rain = 0
KTA1 070937Z 25007KT 14/10 A2997 RMK A01 T01370102  RH  079%=      5-min Rain = 0
KTA1 070938Z 25006KT 14/10 A2997 RMK A01 T01370101  RH  079%=      5-min Rain = 0
KTA1 070939Z 25006KT 14/10 A2997 RMK A01 T01360101  RH  079%=      5-min Rain = 0
KTA1 070940Z 25006KT 14/10 A2997 RMK A01 T01360101  RH  079%=      5-min Rain = 0
KTA1 070941Z 25006KT 14/10 A2997 RMK A01 T01360101  RH  079%=      5-min Rain = 0
KTA1 070942Z 25006KT 14/10 A2997 RMK A01 T01360101  RH  079%=      5-min Rain = 0
KTA1 070943Z 25005KT 14/10 A2997 RMK A01 T01350101  RH  080%=      5-min Rain = 0
KTA1 070944Z 25005KT 14/10 A2997 RMK A01 T01350101  RH  080%=      5-min Rain = 0
KTA1 070945Z 25005KT 13/10 A2997 RMK A01 T01340100  RH  080%=      5-min Rain = 0
KTA1 070946Z 25005KT 13/10 A2997 RMK A01 T01340100  RH  080%=      5-min Rain = 0
KTA1 070947Z 25005KT 13/10 A2997 RMK A01 T01330100  RH  080%=      5-min Rain = 0
KTA1 070948Z 26005KT 13/10 A2997 RMK A01 T01330100  RH  081%=      5-min Rain = 0
KTA1 070949Z 26005KT 13/10 A2996 RMK A01 T01320100  RH  081%=      5-min Rain = 0
KTA1 070950Z 26004KT 13/10 A2996 RMK A01 T01320099  RH  081%=      5-min Rain = 0
KTA1 070951Z 26005KT 13/10 A2996 RMK A01 T01320099  RH  081%=      5-min Rain = 0
KTA1 070952Z 26005KT 13/10 A2996 RMK A01 T01320100  RH  081%=      5-min Rain = 0
KTA1 070953Z 26005KT 13/10 A2996 RMK A01 T01320099  RH  081%=      5-min Rain = 0
KTA1 070954Z 26005KT 13/10 A2996 RMK A01 T01320099  RH  081%=      5-min Rain = 0
KTA1 070955Z 26005KT 13/10 A2996 RMK A01 T01320099  RH  081%=      5-min Rain = 0
KTA1 070956Z 26005KT 13/10 A2996 RMK A01 T01320099  RH  081%=      5-min Rain = 0
KTA1 070957Z 26005KT 13/10 A2996 RMK A01 T01310099  RH  081%=      5-min Rain = 0
KTA1 070958Z 26005KT 13/10 A2996 RMK A01 T01310099  RH  081%=      5-min Rain = 0
KTA1 070959Z 26005KT 13/10 A2996 RMK A01 T01310099  RH  081%=      5-min Rain = 0
KTA1 071000Z 26005KT 13/10 A2996 RMK A01 T01310099  RH  081%=      5-min Rain = 0
KTA1 071001Z 26004KT 13/10 A2996 RMK A01 T01300098  RH  081%=      5-min Rain = 0
KTA1 071002Z 26004KT 13/10 A2996 RMK A01 T01310099  RH  081%=      5-min Rain = 0
KTA1 071003Z 27004KT 13/10 A2996 RMK A01 T01300099  RH  081%=      5-min Rain = 0
KTA1 071004Z 27005KT 13/10 A2996 RMK A01 T01300098  RH  081%=      5-min Rain = 0
KTA1 071005Z 26005KT 13/10 A2996 RMK A01 T01300098  RH  081%=      5-min Rain = 0
KTA1 071006Z 26005KT 13/10 A2996 RMK A01 T01310098  RH  080%=      5-min Rain = 0
KTA1 071007Z 27005KT 13/10 A2996 RMK A01 T01310097  RH  080%=      5-min Rain = 0
KTA1 071008Z 27005KT 13/10 A2996 RMK A01 T01320097  RH  079%=      5-min Rain = 0
KTA1 071009Z 27005KT 13/10 A2996 RMK A01 T01330097  RH  079%=      5-min Rain = 0
KTA1 071010Z 27005KT 13/10 A2996 RMK A01 T01330097  RH  079%=      5-min Rain = 0
KTA1 071011Z 26005KT 13/10 A2996 RMK A01 T01330097  RH  079%=      5-min Rain = 0
KTA1 071012Z 26005KT 13/10 A2996 RMK A01 T01340097  RH  079%=      5-min Rain = 0
KTA1 071013Z 26005KT 13/10 A2996 RMK A01 T01330097  RH  078%=      5-min Rain = 0
KTA1 071014Z 26005KT 13/10 A2996 RMK A01 T01340097  RH  078%=      5-min Rain = 0
KTA1 071015Z 27005KT 13/10 A2996 RMK A01 T01340096  RH  078%=      5-min Rain = 0
KTA1 071016Z 27005KT 14/10 A2996 RMK A01 T01350096  RH  077%=      5-min Rain = 0
KTA1 071017Z 27005KT 14/10 A2996 RMK A01 T01350096  RH  077%=      5-min Rain = 0
KTA1 071018Z 27005KT 14/10 A2996 RMK A01 T01350095  RH  077%=      5-min Rain = 0
KTA1 071019Z 27005KT 14/10 A2996 RMK A01 T01350095  RH  076%=      5-min Rain = 0
KTA1 071020Z 27004KT 14/10 A2996 RMK A01 T01360095  RH  076%=      5-min Rain = 0
KTA1 071021Z 27004KT 14/09 A2996 RMK A01 T01360094  RH  076%=      5-min Rain = 0
KTA1 071022Z 27004KT 14/09 A2996 RMK A01 T01370093  RH  075%=      5-min Rain = 0
KTA1 071023Z 27004KT 14/09 A2996 RMK A01 T01380093  RH  074%=      5-min Rain = 0
KTA1 071024Z 27005KT 14/09 A2996 RMK A01 T01390093  RH  074%=      5-min Rain = 0
KTA1 071025Z 26004KT 14/09 A2997 RMK A01 T01390093  RH  074%=      5-min Rain = 0
KTA1 071026Z 26005KT 14/09 A2997 RMK A01 T01390093  RH  074%=      5-min Rain = 0
KTA1 071027Z 25005KT 14/09 A2997 RMK A01 T01390093  RH  074%=      5-min Rain = 0
KTA1 071028Z 25006KT 14/09 A2997 RMK A01 T01400092  RH  073%=      5-min Rain = 0
KTA1 071029Z 25006KT 14/09 A2998 RMK A01 T01400093  RH  073%=      5-min Rain = 0
KTA1 071030Z 24006KT 14/09 A2998 RMK A01 T01400092  RH  073%=      5-min Rain = 0
KTA1 071031Z 24006KT 14/09 A2998 RMK A01 T01400093  RH  073%=      5-min Rain = 0
KTA1 071032Z 24006KT 14/09 A2998 RMK A01 T01400093  RH  073%=      5-min Rain = 0
KTA1 071033Z 23005KT 14/09 A2998 RMK A01 T01400093  RH  073%=      5-min Rain = 0
KTA1 071034Z 23005KT 14/09 A2998 RMK A01 T01400093  RH  073%=      5-min Rain = 0
KTA1 071035Z 23005KT 14/09 A2998 RMK A01 T01400093  RH  073%=      5-min Rain = 0
KTA1 071036Z 24006KT 14/09 A2998 RMK A01 T01400093  RH  073%=      5-min Rain = 0
KTA1 071037Z 24006KT 14/09 A2998 RMK A01 T01400093  RH  073%=      5-min Rain = 0
KTA1 071038Z 24005KT 14/09 A2998 RMK A01 T01400092  RH  073%=      5-min Rain = 0
KTA1 071039Z 24005KT 14/09 A2998 RMK A01 T01410092  RH  072%=      5-min Rain = 0
KTA1 071040Z 23006KT 14/09 A2998 RMK A01 T01410091  RH  072%=      5-min Rain = 0
KTA1 071041Z 23006KT 14/09 A2998 RMK A01 T01410091  RH  072%=      5-min Rain = 0
KTA1 071042Z 22006KT 14/09 A2998 RMK A01 T01410091  RH  072%=      5-min Rain = 0
KTA1 071043Z 23006KT 14/09 A2998 RMK A01 T01420091  RH  072%=      5-min Rain = 0
KTA1 071044Z 23006KT 14/09 A2998 RMK A01 T01420091  RH  072%=      5-min Rain = 0
KTA1 071045Z 23006KT 14/09 A2998 RMK A01 T01420091  RH  071%=      5-min Rain = 0
KTA1 071046Z 23006KT 14/09 A2998 RMK A01 T01420091  RH  071%=      5-min Rain = 0
KTA1 071047Z 23006KT 14/09 A2998 RMK A01 T01430091  RH  071%=      5-min Rain = 0
KTA1 071048Z 23006KT 14/09 A2998 RMK A01 T01430091  RH  071%=      5-min Rain = 0
KTA1 071049Z 23006KT 14/09 A2998 RMK A01 T01430091  RH  071%=      5-min Rain = 0
KTA1 071050Z 23006KT 14/09 A2998 RMK A01 T01430090  RH  070%=      5-min Rain = 0
KTA1 071051Z 23006KT 14/09 A2998 RMK A01 T01440090  RH  070%=      5-min Rain = 0
KTA1 071052Z 22005KT 14/09 A2998 RMK A01 T01440090  RH  070%=      5-min Rain = 0
KTA1 071053Z 22006KT 15/09 A2998 RMK A01 T01450090  RH  070%=      5-min Rain = 0
KTA1 071054Z 22006KT 15/09 A2998 RMK A01 T01450089  RH  069%=      5-min Rain = 0
KTA1 071055Z 22005KT 15/09 A2998 RMK A01 T01460090  RH  069%=      5-min Rain = 0
KTA1 071056Z 22005KT 15/09 A2998 RMK A01 T01460090  RH  069%=      5-min Rain = 0
KTA1 071057Z 21005KT 15/09 A2998 RMK A01 T01460090  RH  069%=      5-min Rain = 0
KTA1 071058Z 20005KT 15/09 A2999 RMK A01 T01470089  RH  068%=      5-min Rain = 0
KTA1 071059Z 20005KT 15/09 A2999 RMK A01 T01470090  RH  069%=      5-min Rain = 0
KTA1 071100Z 19005KT 15/09 A2999 RMK A01 T01470091  RH  069%=      5-min Rain = 0
KTA1 071101Z 18005KT 15/09 A2999 RMK A01 T01460092  RH  070%=      5-min Rain = 0
KTA1 071102Z 19006KT 15/09 A2999 RMK A01 T01450092  RH  071%=      5-min Rain = 0
KTA1 071103Z 19005KT 14/09 A2999 RMK A01 T01440092  RH  071%=      5-min Rain = 0
KTA1 071104Z 18005KT 15/09 A2999 RMK A01 T01450091  RH  070%=      5-min Rain = 0
KTA1 071105Z 18005KT 15/09 A2999 RMK A01 T01450090  RH  070%=      5-min Rain = 0
KTA1 071106Z 19005KT 15/09 A2999 RMK A01 T01450090  RH  069%=      5-min Rain = 0
KTA1 071107Z 19006KT 15/09 A2999 RMK A01 T01450090  RH  069%=      5-min Rain = 0
KTA1 071108Z 19006KT 15/09 A2999 RMK A01 T01460090  RH  069%=      5-min Rain = 0
KTA1 071109Z 20006KT 15/09 A2999 RMK A01 T01460090  RH  069%=      5-min Rain = 0
KTA1 071110Z 20007KT 15/09 A2999 RMK A01 T01460089  RH  069%=      5-min Rain = 0
KTA1 071111Z 20007KT 15/09 A30 RMK A01 T01480088  RH  068%=      5-min Rain = 0
KTA1 071112Z 20007KT 15/09 A30 RMK A01 T01480087  RH  066%=      5-min Rain = 0
KTA1 071113Z 21007KT 15/09 A30 RMK A01 T01500087  RH  066%=      5-min Rain = 0
KTA1 071114Z 20007KT 15/09 A30 RMK A01 T01510086  RH  065%=      5-min Rain = 0
KTA1 071115Z 20007KT 15/09 A30 RMK A01 T01520086  RH  065%=      5-min Rain = 0
KTA1 071116Z 19006KT 15/09 A30 RMK A01 T01530086  RH  065%=      5-min Rain = 0
KTA1 071117Z 19006KT 15/09 A30 RMK A01 T01530087  RH  065%=      5-min Rain = 0
KTA1 071118Z 18005KT 15/09 A30 RMK A01 T01520089  RH  066%=      5-min Rain = 0
KTA1 071119Z 18005KT 15/09 A30 RMK A01 T01510092  RH  068%=      5-min Rain = 0
KTA1 071120Z 19005KT 15/09 A30 RMK A01 T01490092  RH  069%=      5-min Rain = 0
KTA1 071121Z 19007KT 15/09 A30 RMK A01 T01480091  RH  069%=      5-min Rain = 0
KTA1 071122Z 19007KT 15/09 A30 RMK A01 T01480090  RH  068%=      5-min Rain = 0
KTA1 071123Z 18007KT 15/09 A30 RMK A01 T01480088  RH  067%=      5-min Rain = 0
KTA1 071124Z 17008KT 15/09 A30 RMK A01 T01490089  RH  068%=      5-min Rain = 0
KTA1 071125Z 16007KT 15/09 A30 RMK A01 T01480091  RH  068%=      5-min Rain = 0
KTA1 071126Z 16009KT 15/09 A30 RMK A01 T01470092  RH  069%=      5-min Rain = 0
KTA1 071127Z 16009KT 15/09 A30 RMK A01 T01460092  RH  070%=      5-min Rain = 0
KTA1 071128Z 16012KT 15/09 A3001 RMK A01 T01450093  RH  071%=      5-min Rain = 0
KTA1 071129Z 17011KT 15/09 A3001 RMK A01 T01450093  RH  071%=      5-min Rain = 0
KTA1 071130Z 17011KT 14/09 A3001 RMK A01 T01440094  RH  072%=      5-min Rain = 0
KTA1 071131Z 17010KT 14/10 A3001 RMK A01 T01430095  RH  073%=      5-min Rain = 0
KTA1 071132Z 18012KT 14/10 A3001 RMK A01 T01420095  RH  073%=      5-min Rain = 0
KTA1 071133Z 18010KT 14/09 A3001 RMK A01 T01420094  RH  073%=      5-min Rain = 0
KTA1 071134Z 19010KT 14/09 A3001 RMK A01 T01430094  RH  073%=      5-min Rain = 0
KTA1 071135Z 20009KT 14/09 A3001 RMK A01 T01440094  RH  072%=      5-min Rain = 0
KTA1 071136Z 19009KT 14/09 A3001 RMK A01 T01440094  RH  072%=      5-min Rain = 0
KTA1 071137Z 19011KT 15/09 A3001 RMK A01 T01450093  RH  071%=      5-min Rain = 0
KTA1 071138Z 20010KT 15/09 A3001 RMK A01 T01460093  RH  070%=      5-min Rain = 0
KTA1 071139Z 20011KT 15/09 A3001 RMK A01 T01460093  RH  070%=      5-min Rain = 0
KTA1 071140Z 19011KT 15/09 A3001 RMK A01 T01470093  RH  070%=      5-min Rain = 0
KTA1 071141Z 19011KT 15/09 A3001 RMK A01 T01480092  RH  069%=      5-min Rain = 0
KTA1 071142Z 20011KT 15/09 A3001 RMK A01 T01500092  RH  068%=      5-min Rain = 0
KTA1 071143Z 20010KT 15/09 A3001 RMK A01 T01510092  RH  068%=      5-min Rain = 0
KTA1 071144Z 20010KT 15/09 A3001 RMK A01 T01510092  RH  068%=      5-min Rain = 0
KTA1 071145Z 19010KT 15/09 A3001 RMK A01 T01510093  RH  068%=      5-min Rain = 0
KTA1 071146Z 20009KT 15/09 A3001 RMK A01 T01510093  RH  068%=      5-min Rain = 0
KTA1 071147Z 20010KT 15/09 A3001 RMK A01 T01510094  RH  069%=      5-min Rain = 0
KTA1 071148Z 20010KT 15/09 A3001 RMK A01 T01510094  RH  069%=      5-min Rain = 0
KTA1 071149Z 19009KT 15/09 A3001 RMK A01 T01510094  RH  069%=      5-min Rain = 0
KTA1 071150Z 19009KT 15/09 A3001 RMK A01 T01520094  RH  068%=      5-min Rain = 0
KTA1 071151Z 19009KT 15/10 A3002 RMK A01 T01520095  RH  069%=      5-min Rain = 0
KTA1 071152Z 19010KT 15/10 A3002 RMK A01 T01510096  RH  069%=      5-min Rain = 0
KTA1 071153Z 19009KT 15/10 A3002 RMK A01 T01510096  RH  070%=      5-min Rain = 0
KTA1 071154Z 18009KT 15/10 A3002 RMK A01 T01500096  RH  070%=      5-min Rain = 0
KTA1 071155Z 18008KT 15/10 A3002 RMK A01 T01500097  RH  071%=      5-min Rain = 0
KTA1 071156Z 19008KT 15/10 A3002 RMK A01 T01490097  RH  071%=      5-min Rain = 0
KTA1 071157Z 18008KT 15/10 A3002 RMK A01 T01490097  RH  071%=      5-min Rain = 0
KTA1 071158Z 19008KT 15/10 A3002 RMK A01 T01490098  RH  071%=      5-min Rain = 0
KTA1 071159Z 19008KT 15/10 A3002 RMK A01 T01490098  RH  072%=      5-min Rain = 0
KTA1 071200Z 20007KT 15/10 A3002 RMK A01 T01490098  RH  072%=      5-min Rain = 0
KTA1 071201Z 20007KT 15/10 A3002 RMK A01 T01490098  RH  072%=      5-min Rain = 0
KTA1 071202Z 20007KT 15/10 A3002 RMK A01 T01490098  RH  072%=      5-min Rain = 0
KTA1 071203Z 20006KT 15/10 A3002 RMK A01 T01490098  RH  072%=      5-min Rain = 0
KTA1 071204Z 21007KT 15/10 A3002 RMK A01 T01490098  RH  072%=      5-min Rain = 0
KTA1 071205Z 20007KT 15/10 A3002 RMK A01 T01500099  RH  071%=      5-min Rain = 0
KTA1 071206Z 21008KT 15/10 A3002 RMK A01 T01500099  RH  071%=      5-min Rain = 0
KTA1 071207Z 21007KT 15/10 A3002 RMK A01 T01510099  RH  071%=      5-min Rain = 0
KTA1 071208Z 20007KT 15/10 A3002 RMK A01 T01520099  RH  071%=      5-min Rain = 0
KTA1 071209Z 21007KT 15/10 A3002 RMK A01 T01530099  RH  070%=      5-min Rain = 0
KTA1 071210Z 21007KT 15/10 A3002 RMK A01 T01530099  RH  070%=      5-min Rain = 0
KTA1 071211Z 21007KT 15/10 A3002 RMK A01 T01530099  RH  070%=      5-min Rain = 0
KTA1 071212Z 20006KT 15/10 A3002 RMK A01 T01530099  RH  070%=      5-min Rain = 0
KTA1 071213Z 21007KT 15/10 A3002 RMK A01 T01530099  RH  070%=      5-min Rain = 0
KTA1 071214Z 20007KT 15/10 A3002 RMK A01 T01530100  RH  070%=      5-min Rain = 0
KTA1 071215Z 20007KT 15/10 A3002 RMK A01 T01530100  RH  071%=      5-min Rain = 0
KTA1 071216Z 20007KT 15/10 A3002 RMK A01 T01530100  RH  071%=      5-min Rain = 0
KTA1 071217Z 20007KT 15/10 A3002 RMK A01 T01530101  RH  071%=      5-min Rain = 0
KTA1 071218Z 20007KT 15/10 A3002 RMK A01 T01520101  RH  071%=      5-min Rain = 0
KTA1 071219Z 20006KT 15/10 A3002 RMK A01 T01520101  RH  072%=      5-min Rain = 0
KTA1 071220Z 20007KT 15/10 A3002 RMK A01 T01520102  RH  072%=      5-min Rain = 0
KTA1 071221Z 19006KT 15/10 A3001 RMK A01 T01520103  RH  072%=      5-min Rain = 0
KTA1 071222Z 19007KT 15/10 A3001 RMK A01 T01520103  RH  072%=      5-min Rain = 0
KTA1 071223Z 19007KT 15/10 A3001 RMK A01 T01520103  RH  072%=      5-min Rain = 0
KTA1 071224Z 19006KT 15/10 A3001 RMK A01 T01520103  RH  073%=      5-min Rain = 0
KTA1 071225Z 19006KT 15/10 A3001 RMK A01 T01520104  RH  073%=      5-min Rain = 0
KTA1 071226Z 19006KT 15/10 A3001 RMK A01 T01520104  RH  073%=      5-min Rain = 0
KTA1 071227Z 19006KT 15/10 A3001 RMK A01 T01510104  RH  073%=      5-min Rain = 0
KTA1 071228Z 19006KT 15/10 A3001 RMK A01 T01520104  RH  073%=      5-min Rain = 0
KTA1 071229Z 19006KT 15/10 A3001 RMK A01 T01510104  RH  073%=      5-min Rain = 0
KTA1 071230Z 20006KT 15/10 A3001 RMK A01 T01510104  RH  073%=      5-min Rain = 0
KTA1 071231Z 20005KT 15/10 A3001 RMK A01 T01510104  RH  073%=      5-min Rain = 0
KTA1 071232Z 20005KT 15/10 A3001 RMK A01 T01510104  RH  073%=      5-min Rain = 0
KTA1 071233Z 20006KT 15/10 A3001 RMK A01 T01510104  RH  073%=      5-min Rain = 0
KTA1 071234Z 20005KT 15/10 A3001 RMK A01 T01520104  RH  073%=      5-min Rain = 0
KTA1 071235Z 20005KT 15/11 A3001 RMK A01 T01520105  RH  073%=      5-min Rain = 0
KTA1 071236Z 20005KT 15/11 A3001 RMK A01 T01520105  RH  073%=      5-min Rain = 0
KTA1 071237Z 21005KT 15/11 A3001 RMK A01 T01520105  RH  073%=      5-min Rain = 0
KTA1 071238Z 20006KT 15/11 A3001 RMK A01 T01530105  RH  073%=      5-min Rain = 0
KTA1 071239Z 20005KT 15/11 A3001 RMK A01 T01530105  RH  073%=      5-min Rain = 0
KTA1 071240Z 20005KT 15/11 A3001 RMK A01 T01540105  RH  073%=      5-min Rain = 0
KTA1 071241Z 20005KT 15/11 A3001 RMK A01 T01540105  RH  073%=      5-min Rain = 0
KTA1 071242Z 20005KT 15/11 A3001 RMK A01 T01540106  RH  073%=      5-min Rain = 0
KTA1 071243Z 20005KT 15/11 A3001 RMK A01 T01540106  RH  073%=      5-min Rain = 0
KTA1 071244Z 20005KT 15/11 A3001 RMK A01 T01540106  RH  073%=      5-min Rain = 0
KTA1 071245Z 20005KT 15/11 A30 RMK A01 T01540106  RH  073%=      5-min Rain = 0
KTA1 071246Z 20005KT 15/11 A30 RMK A01 T01540106  RH  073%=      5-min Rain = 0
KTA1 071247Z 20004KT 15/11 A30 RMK A01 T01540106  RH  073%=      5-min Rain = 0
KTA1 071248Z 20004KT 16/11 A30 RMK A01 T01550106  RH  073%=      5-min Rain = 0
KTA1 071249Z 20004KT 16/11 A30 RMK A01 T01550107  RH  073%=      5-min Rain = 0
KTA1 071250Z 20005KT 16/11 A30 RMK A01 T01550107  RH  073%=      5-min Rain = 0
KTA1 071251Z 20004KT 16/11 A30 RMK A01 T01550107  RH  073%=      5-min Rain = 0
KTA1 071252Z 19004KT 16/11 A30 RMK A01 T01550107  RH  073%=      5-min Rain = 0
KTA1 071253Z 19005KT 16/11 A30 RMK A01 T01550108  RH  073%=      5-min Rain = 0
KTA1 071254Z 19005KT 16/11 A30 RMK A01 T01550107  RH  073%=      5-min Rain = 0
KTA1 071255Z 19005KT 16/11 A30 RMK A01 T01550108  RH  073%=      5-min Rain = 0
KTA1 071256Z 19005KT 16/11 A30 RMK A01 T01550108  RH  074%=      5-min Rain = 0
KTA1 071257Z 19005KT 16/11 A30 RMK A01 T01550108  RH  074%=      5-min Rain = 0
KTA1 071258Z 19006KT 16/11 A30 RMK A01 T01550108  RH  074%=      5-min Rain = 0
KTA1 071259Z 19006KT 16/11 A30 RMK A01 T01550108  RH  074%=      5-min Rain = 0
KTA1 071300Z 19006KT 16/11 A30 RMK A01 T01550108  RH  074%=      5-min Rain = 0
KTA1 071301Z 19006KT 16/11 A30 RMK A01 T01550108  RH  074%=      5-min Rain = 0
KTA1 071302Z 19006KT 16/11 A30 RMK A01 T01550109  RH  074%=      5-min Rain = 0
KTA1 071303Z 19006KT 16/11 A30 RMK A01 T01550109  RH  074%=      5-min Rain = 0
KTA1 071304Z 19006KT 16/11 A30 RMK A01 T01550109  RH  074%=      5-min Rain = 0
KTA1 071305Z 20005KT 15/11 A30 RMK A01 T01540109  RH  074%=      5-min Rain = 0
KTA1 071306Z 19006KT 16/11 A3001 RMK A01 T01550109  RH  074%=      5-min Rain = 0
KTA1 071307Z 19006KT 16/11 A3001 RMK A01 T01550109  RH  074%=      5-min Rain = 0
KTA1 071308Z 19006KT 16/11 A3001 RMK A01 T01550109  RH  074%=      5-min Rain = 0
KTA1 071309Z 19006KT 16/11 A3001 RMK A01 T01550110  RH  074%=      5-min Rain = 0
KTA1 071310Z 19006KT 16/11 A3001 RMK A01 T01550110  RH  075%=      5-min Rain = 0
KTA1 071311Z 19005KT 16/11 A3001 RMK A01 T01550110  RH  075%=      5-min Rain = 0
KTA1 071312Z 19006KT 15/11 A3001 RMK A01 T01540110  RH  075%=      5-min Rain = 0
KTA1 071313Z 20006KT 15/11 A3001 RMK A01 T01540110  RH  075%=      5-min Rain = 0
KTA1 071314Z 20006KT 15/11 A3001 RMK A01 T01540111  RH  075%=      5-min Rain = 0
KTA1 071315Z 20007KT 15/11 A3002 RMK A01 T01540110  RH  075%=      5-min Rain = 0
KTA1 071316Z 20007KT 15/11 A3002 RMK A01 T01540110  RH  075%=      5-min Rain = 0
KTA1 071317Z 20007KT 16/11 A3002 RMK A01 T01550110  RH  075%=      5-min Rain = 0
KTA1 071318Z 21007KT 16/11 A3002 RMK A01 T01550110  RH  075%=      5-min Rain = 0
KTA1 071319Z 21008KT 16/11 A3002 RMK A01 T01560111  RH  074%=      5-min Rain = 0
KTA1 071320Z 21008KT 16/11 A3003 RMK A01 T01570110  RH  074%=      5-min Rain = 0
KTA1 071321Z 21009KT 16/11 A3003 RMK A01 T01580110  RH  073%=      5-min Rain = 0
KTA1 071322Z 21008KT 16/11 A3003 RMK A01 T01590110  RH  073%=      5-min Rain = 0
KTA1 071323Z 21008KT 16/11 A3003 RMK A01 T01600110  RH  072%=      5-min Rain = 0
KTA1 071324Z 21008KT 16/11 A3003 RMK A01 T01600110  RH  072%=      5-min Rain = 0
KTA1 071325Z 21008KT 16/11 A3003 RMK A01 T01590110  RH  072%=      5-min Rain = 0
KTA1 071326Z 21007KT 16/11 A3003 RMK A01 T01600111  RH  073%=      5-min Rain = 0
KTA1 071327Z 21007KT 16/11 A3002 RMK A01 T01600111  RH  073%=      5-min Rain = 0
KTA1 071328Z 22007KT 16/11 A3002 RMK A01 T01600111  RH  073%=      5-min Rain = 0
KTA1 071329Z 22007KT 16/11 A3002 RMK A01 T01600111  RH  073%=      5-min Rain = 0
KTA1 071330Z 21007KT 16/11 A3002 RMK A01 T01600111  RH  073%=      5-min Rain = 0
KTA1 071331Z 21006KT 16/11 A3002 RMK A01 T01600111  RH  073%=      5-min Rain = 0
KTA1 071332Z 21006KT 16/11 A3002 RMK A01 T01600111  RH  072%=      5-min Rain = 0
KTA1 071333Z 22006KT 16/11 A3002 RMK A01 T01610111  RH  072%=      5-min Rain = 0
KTA1 071334Z 21007KT 16/11 A3002 RMK A01 T01610111  RH  072%=      5-min Rain = 0
KTA1 071335Z 21006KT 16/11 A3002 RMK A01 T01610111  RH  072%=      5-min Rain = 0
KTA1 071336Z 21007KT 16/11 A3002 RMK A01 T01610112  RH  072%=      5-min Rain = 0
KTA1 071337Z 21006KT 16/11 A3002 RMK A01 T01620112  RH  072%=      5-min Rain = 0
KTA1 071338Z 22006KT 16/11 A3002 RMK A01 T01620113  RH  072%=      5-min Rain = 0
KTA1 071339Z 22006KT 16/11 A3002 RMK A01 T01620113  RH  073%=      5-min Rain = 0
KTA1 071340Z 22006KT 16/11 A3002 RMK A01 T01620112  RH  072%=      5-min Rain = 0
KTA1 071341Z 22005KT 16/11 A3002 RMK A01 T01620113  RH  072%=      5-min Rain = 0
KTA1 071342Z 22005KT 16/11 A3002 RMK A01 T01620113  RH  073%=      5-min Rain = 0
KTA1 071343Z 22005KT 16/11 A3002 RMK A01 T01620114  RH  073%=      5-min Rain = 0
KTA1 071344Z 22006KT 16/11 A3002 RMK A01 T01620114  RH  073%=      5-min Rain = 0
KTA1 071345Z 22005KT 16/11 A3002 RMK A01 T01630114  RH  073%=      5-min Rain = 0
KTA1 071346Z 21006KT 16/11 A3002 RMK A01 T01630114  RH  073%=      5-min Rain = 0
KTA1 071347Z 21006KT 16/11 A3002 RMK A01 T01640114  RH  072%=      5-min Rain = 0
KTA1 071348Z 21006KT 16/11 A3002 RMK A01 T01640114  RH  072%=      5-min Rain = 0
KTA1 071349Z 21006KT 17/11 A3002 RMK A01 T01650114  RH  072%=      5-min Rain = 0
KTA1 071350Z 20006KT 17/12 A3002 RMK A01 T01660115  RH  072%=      5-min Rain = 0
KTA1 071351Z 20006KT 17/12 A3002 RMK A01 T01670115  RH  071%=      5-min Rain = 0
KTA1 071352Z 20006KT 17/12 A3002 RMK A01 T01680115  RH  071%=      5-min Rain = 0
KTA1 071353Z 20006KT 17/12 A3002 RMK A01 T01690115  RH  070%=      5-min Rain = 0
KTA1 071354Z 20006KT 17/12 A3002 RMK A01 T01700116  RH  070%=      5-min Rain = 0
KTA1 071355Z 20006KT 17/12 A3002 RMK A01 T01720117  RH  070%=      5-min Rain = 0
KTA1 071356Z 20006KT 17/12 A3002 RMK A01 T01720116  RH  069%=      5-min Rain = 0
KTA1 071357Z 20007KT 17/12 A3002 RMK A01 T01730116  RH  069%=      5-min Rain = 0
KTA1 071358Z 20007KT 17/12 A3002 RMK A01 T01730116  RH  069%=      5-min Rain = 0
KTA1 071359Z 20007KT 17/12 A3002 RMK A01 T01740115  RH  069%=      5-min Rain = 0
KTA1 071400Z 20008KT 18/12 A3002 RMK A01 T01750115  RH  068%=      5-min Rain = 0
KTA1 071401Z 21007KT 18/12 A3003 RMK A01 T01760115  RH  067%=      5-min Rain = 0
KTA1 071402Z 20008KT 18/12 A3003 RMK A01 T01780117  RH  067%=      5-min Rain = 0
KTA1 071403Z 21007KT 18/12 A3003 RMK A01 T01800117  RH  067%=      5-min Rain = 0
KTA1 071404Z 20007KT 18/12 A3003 RMK A01 T01810118  RH  066%=      5-min Rain = 0
KTA1 071405Z 21008KT 18/12 A3003 RMK A01 T01830117  RH  066%=      5-min Rain = 0
KTA1 071406Z 21007KT 18/12 A3003 RMK A01 T01830117  RH  066%=      5-min Rain = 0
KTA1 071407Z 22007KT 18/12 A3003 RMK A01 T01840118  RH  066%=      5-min Rain = 0
KTA1 071408Z 21008KT 18/12 A3003 RMK A01 T01840118  RH  065%=      5-min Rain = 0
KTA1 071409Z 22006KT 19/12 A3003 RMK A01 T01850119  RH  065%=      5-min Rain = 0
KTA1 071410Z 23007KT 19/12 A3003 RMK A01 T01860120  RH  065%=      5-min Rain = 0
KTA1 071411Z 23007KT 19/12 A3003 RMK A01 T01880120  RH  065%=      5-min Rain = 0
KTA1 071412Z 22006KT 19/12 A3003 RMK A01 T01880120  RH  065%=      5-min Rain = 0
KTA1 071413Z 23007KT 19/12 A3002 RMK A01 T01880122  RH  065%=      5-min Rain = 0
KTA1 071414Z 22009KT 19/12 A3002 RMK A01 T01880120  RH  064%=      5-min Rain = 0
KTA1 071415Z 22009KT 19/12 A3002 RMK A01 T01890117  RH  063%=      5-min Rain = 0
KTA1 071416Z 22007KT 19/12 A3002 RMK A01 T01900119  RH  063%=      5-min Rain = 0
KTA1 071417Z 22008KT 19/12 A3002 RMK A01 T01910120  RH  063%=      5-min Rain = 0
KTA1 071418Z 22009KT 19/12 A3003 RMK A01 T01920118  RH  062%=      5-min Rain = 0
KTA1 071419Z 22009KT 19/12 A3003 RMK A01 T01920117  RH  062%=      5-min Rain = 0
KTA1 071420Z 22010KT 19/12 A3003 RMK A01 T01920115  RH  061%=      5-min Rain = 0
KTA1 071421Z 22009KT 19/11 A3003 RMK A01 T01920114  RH  060%=      5-min Rain = 0
KTA1 071422Z 22007KT 19/12 A3003 RMK A01 T01920116  RH  061%=      5-min Rain = 0
KTA1 071423Z 22007KT 19/12 A3003 RMK A01 T01920116  RH  061%=      5-min Rain = 0
KTA1 071424Z 22011KT 19/12 A3003 RMK A01 T01920115  RH  061%=      5-min Rain = 0
KTA1 071425Z 22011KT 19/11 A3003 RMK A01 T01920113  RH  060%=      5-min Rain = 0
KTA1 071426Z 22010KT 19/11 A3003 RMK A01 T01920113  RH  060%=      5-min Rain = 0
KTA1 071427Z 21010KT 19/11 A3003 RMK A01 T01920113  RH  060%=      5-min Rain = 0
KTA1 071428Z 22010KT 19/11 A3003 RMK A01 T01920113  RH  060%=      5-min Rain = 0
KTA1 071429Z 21010KT 19/11 A3003 RMK A01 T01920114  RH  060%=      5-min Rain = 0
KTA1 071430Z 22009KT 19/12 A3003 RMK A01 T01930115  RH  060%=      5-min Rain = 0
KTA1 071431Z 21010KT 20/12 A3003 RMK A01 T01950116  RH  060%=      5-min Rain = 0
KTA1 071432Z 22007KT 20/12 A3003 RMK A01 T01950116  RH  060%=      5-min Rain = 0
KTA1 071433Z 21008KT 20/12 A3003 RMK A01 T01970117  RH  060%=      5-min Rain = 0
KTA1 071434Z 22007KT 20/12 A3003 RMK A01 T01980117  RH  059%=      5-min Rain = 0
KTA1 071435Z 21008KT 20/12 A3003 RMK A01 T01990117  RH  059%=      5-min Rain = 0
KTA1 071436Z 21007KT 20/12 A3003 RMK A01 T02000117  RH  059%=      5-min Rain = 0
KTA1 071437Z 21008KT 20/12 A3003 RMK A01 T02010118  RH  059%=      5-min Rain = 0
KTA1 071438Z 21010KT 20/12 A3003 RMK A01 T02020117  RH  058%=      5-min Rain = 0
KTA1 071439Z 21011KT 20/12 A3003 RMK A01 T02030116  RH  057%=      5-min Rain = 0
KTA1 071440Z 21009KT 20/12 A3003 RMK A01 T02030116  RH  057%=      5-min Rain = 0
KTA1 071441Z 21010KT 20/12 A3003 RMK A01 T02040117  RH  057%=      5-min Rain = 0
KTA1 071442Z 22011KT 21/12 A3003 RMK A01 T02050115  RH  056%=      5-min Rain = 0
KTA1 071443Z 22011KT 21/12 A3003 RMK A01 T02050115  RH  056%=      5-min Rain = 0
KTA1 071444Z 21011KT 21/12 A3003 RMK A01 T02050115  RH  056%=      5-min Rain = 0
KTA1 071445Z 21010KT 21/12 A3004 RMK A01 T02050116  RH  057%=      5-min Rain = 0
KTA1 071446Z 21011KT 21/12 A3004 RMK A01 T02060116  RH  056%=      5-min Rain = 0
KTA1 071447Z 22014KT 21/11 A3003 RMK A01 T02060112  RH  055%=      5-min Rain = 0
KTA1 071448Z 22013KT 21/11 A3003 RMK A01 T02060111  RH  054%=      5-min Rain = 0
KTA1 071449Z 22011KT 21/11 A3003 RMK A01 T02060112  RH  055%=      5-min Rain = 0
KTA1 071450Z 21009KT 21/11 A3003 RMK A01 T02060114  RH  056%=      5-min Rain = 0
KTA1 071451Z 22010KT 21/11 A3004 RMK A01 T02070114  RH  055%=      5-min Rain = 0
KTA1 071452Z 22010KT 21/11 A3004 RMK A01 T02080113  RH  055%=      5-min Rain = 0
KTA1 071453Z 23012KT 21/11 A3004 RMK A01 T02080113  RH  055%=      5-min Rain = 0
KTA1 071454Z 23011KT 21/11 A3004 RMK A01 T02080114  RH  055%=      5-min Rain = 0
KTA1 071455Z 23011KT 21/11 A3004 RMK A01 T02080114  RH  055%=      5-min Rain = 0
KTA1 071456Z 23010KT 21/11 A3004 RMK A01 T02080113  RH  054%=      5-min Rain = 0
KTA1 071457Z 23011KT 21/11 A3004 RMK A01 T02090112  RH  054%=      5-min Rain = 0
KTA1 071458Z 22012KT 21/11 A3004 RMK A01 T02100113  RH  054%=      5-min Rain = 0
KTA1 071459Z 22010KT 21/12 A3004 RMK A01 T02100115  RH  055%=      5-min Rain = 0
KTA1 071500Z 22013KT 21/11 A3004 RMK A01 T02110114  RH  054%=      5-min Rain = 0
KTA1 071501Z 22012KT 21/11 A3003 RMK A01 T02120111  RH  053%=      5-min Rain = 0
KTA1 071502Z 22013KT 21/11 A3004 RMK A01 T02120111  RH  052%=      5-min Rain = 0
KTA1 071503Z 23012KT 21/11 A3004 RMK A01 T02130111  RH  052%=      5-min Rain = 0
KTA1 071504Z 23012KT 21/11 A3004 RMK A01 T02140110  RH  052%=      5-min Rain = 0
KTA1 071505Z 23011KT 21/11 A3003 RMK A01 T02140110  RH  052%=      5-min Rain = 0
KTA1 071506Z 23011KT 21/11 A3003 RMK A01 T02140111  RH  052%=      5-min Rain = 0
KTA1 071507Z 23013KT 22/11 A3004 RMK A01 T02150111  RH  051%=      5-min Rain = 0
KTA1 071508Z 24013KT 22/11 A3003 RMK A01 T02150110  RH  051%=      5-min Rain = 0
KTA1 071509Z 23011KT 22/11 A3003 RMK A01 T02150108  RH  050%=      5-min Rain = 0
KTA1 071510Z 23010KT 22/11 A3003 RMK A01 T02150111  RH  051%=      5-min Rain = 0
KTA1 071511Z 24013KT 22/11 A3003 RMK A01 T02170112  RH  051%=      5-min Rain = 0
KTA1 071512Z 23013KT 22/11 A3003 RMK A01 T02170110  RH  050%=      5-min Rain = 0
KTA1 071513Z 22013KT 22/11 A3003 RMK A01 T02170111  RH  051%=      5-min Rain = 0
KTA1 071514Z 23012KT 22/11 A3004 RMK A01 T02180111  RH  051%=      5-min Rain = 0
KTA1 071515Z 23012KT 22/11 A3004 RMK A01 T02190111  RH  050%=      5-min Rain = 0
KTA1 071516Z 24013KT 22/11 A3004 RMK A01 T02200109  RH  049%=      5-min Rain = 0
KTA1 071517Z 24013KT 22/11 A3004 RMK A01 T02210108  RH  049%=      5-min Rain = 0
KTA1 071518Z 23013KT 22/11 A3004 RMK A01 T02200108  RH  049%=      5-min Rain = 0
KTA1 071519Z 22013KT 22/11 A3004 RMK A01 T02200108  RH  049%=      5-min Rain = 0
KTA1 071520Z 22014KT 22/11 A3004 RMK A01 T02200107  RH  049%=      5-min Rain = 0
KTA1 071521Z 22013KT 22/11 A3004 RMK A01 T02220108  RH  048%=      5-min Rain = 0
KTA1 071522Z 22014KT 22/11 A3004 RMK A01 T02220107  RH  048%=      5-min Rain = 0
KTA1 071523Z 22013KT 22/11 A3004 RMK A01 T02220109  RH  049%=      5-min Rain = 0
KTA1 071524Z 22014KT 22/11 A3004 RMK A01 T02230110  RH  049%=      5-min Rain = 0
KTA1 071525Z 21012KT 22/11 A3004 RMK A01 T02240109  RH  048%=      5-min Rain = 0
KTA1 071526Z 22014G19KT 22/11 A3004 RMK A01 T02230109  RH  048%=      5-min Rain = 0
KTA1 071527Z 23015KT 22/11 A3004 RMK A01 T02230108  RH  048%=      5-min Rain = 0
KTA1 071528Z 24013KT 22/11 A3004 RMK A01 T02240106  RH  047%=      5-min Rain = 0
KTA1 071529Z 22012KT 22/11 A3004 RMK A01 T02240111  RH  049%=      5-min Rain = 0
KTA1 071530Z 21013KT 23/11 A3004 RMK A01 T02250112  RH  049%=      5-min Rain = 0
KTA1 071531Z 21012KT 23/11 A3004 RMK A01 T02260111  RH  048%=      5-min Rain = 0
KTA1 071532Z 22014KT 23/11 A3004 RMK A01 T02280111  RH  048%=      5-min Rain = 0
KTA1 071533Z 21015KT 23/11 A3004 RMK A01 T02280110  RH  047%=      5-min Rain = 0
KTA1 071534Z 23013KT 23/11 A3004 RMK A01 T02280109  RH  047%=      5-min Rain = 0
KTA1 071535Z 23012KT 23/11 A3004 RMK A01 T02280110  RH  047%=      5-min Rain = 0
KTA1 071536Z 22013KT 23/11 A3004 RMK A01 T02280112  RH  048%=      5-min Rain = 0
KTA1 071537Z 22014KT 23/11 A3004 RMK A01 T02280112  RH  048%=      5-min Rain = 0
KTA1 071538Z 23013KT 23/11 A3004 RMK A01 T02280109  RH  047%=      5-min Rain = 0
KTA1 071539Z 22013KT 23/11 A3004 RMK A01 T02300107  RH  046%=      5-min Rain = 0
KTA1 071540Z 22011KT 23/11 A3004 RMK A01 T02300107  RH  046%=      5-min Rain = 0
KTA1 071541Z 23010KT 23/11 A3004 RMK A01 T02310110  RH  046%=      5-min Rain = 0
KTA1 071542Z 22011KT 23/11 A3004 RMK A01 T02330112  RH  046%=      5-min Rain = 0
KTA1 071543Z 23012KT 23/11 A3004 RMK A01 T02340110  RH  046%=      5-min Rain = 0
KTA1 071544Z 22013KT 23/11 A3004 RMK A01 T02320110  RH  046%=      5-min Rain = 0
KTA1 071545Z 22013KT 23/11 A3004 RMK A01 T02320112  RH  047%=      5-min Rain = 0
KTA1 071546Z 23014KT 23/11 A3004 RMK A01 T02330108  RH  045%=      5-min Rain = 0
KTA1 071547Z 22014KT 23/11 A3004 RMK A01 T02320109  RH  046%=      5-min Rain = 0
KTA1 071548Z 21012KT 23/11 A3004 RMK A01 T02320110  RH  046%=      5-min Rain = 0
KTA1 071549Z 22013KT 23/11 A3004 RMK A01 T02330111  RH  046%=      5-min Rain = 0
KTA1 071550Z 23014KT 23/11 A3004 RMK A01 T02330109  RH  045%=      5-min Rain = 0
KTA1 071551Z 22013KT 23/11 A3004 RMK A01 T02330107  RH  045%=      5-min Rain = 0
KTA1 071552Z 22013KT 23/11 A3004 RMK A01 T02340107  RH  045%=      5-min Rain = 0
KTA1 071553Z 22014KT 24/11 A3004 RMK A01 T02360109  RH  045%=      5-min Rain = 0
KTA1 071554Z 21015KT 24/11 A3004 RMK A01 T02370112  RH  045%=      5-min Rain = 0
KTA1 071555Z 21012KT 24/11 A3004 RMK A01 T02360110  RH  045%=      5-min Rain = 0
KTA1 071556Z 22010KT 24/11 A3004 RMK A01 T02360111  RH  045%=      5-min Rain = 0
KTA1 071557Z 23012KT 24/11 A3004 RMK A01 T02370112  RH  045%=      5-min Rain = 0
KTA1 071558Z 22014KT 24/11 A3004 RMK A01 T02370109  RH  045%=      5-min Rain = 0
KTA1 071559Z 23012KT 24/11 A3004 RMK A01 T02370105  RH  043%=      5-min Rain = 0
KTA1 071600Z 22014KT 24/11 A3004 RMK A01 T02370108  RH  044%=      5-min Rain = 0
KTA1 071601Z 22013KT 24/11 A3004 RMK A01 T02380113  RH  045%=      5-min Rain = 0
KTA1 071602Z 22013KT 24/11 A3004 RMK A01 T02390112  RH  045%=      5-min Rain = 0
KTA1 071603Z 21014KT 24/11 A3004 RMK A01 T02390112  RH  045%=      5-min Rain = 0
KTA1 071604Z 23013KT 24/11 A3004 RMK A01 T02390112  RH  045%=      5-min Rain = 0
KTA1 071605Z 22014KT 24/11 A3004 RMK A01 T02410109  RH  044%=      5-min Rain = 0
KTA1 071606Z 22011KT 24/11 A3004 RMK A01 T02400108  RH  044%=      5-min Rain = 0
KTA1 071607Z 22012KT 24/11 A3004 RMK A01 T02400110  RH  044%=      5-min Rain = 0
KTA1 071608Z 22013KT 24/11 A3004 RMK A01 T02400110  RH  044%=      5-min Rain = 0
KTA1 071609Z 21013KT 24/11 A3004 RMK A01 T02400108  RH  043%=      5-min Rain = 0
KTA1 071610Z 23015KT 24/10 A3004 RMK A01 T02400104  RH  042%=      5-min Rain = 0
KTA1 071611Z 24012KT 24/10 A3004 RMK A01 T02410102  RH  041%=      5-min Rain = 0
KTA1 071612Z 24009KT 24/10 A3004 RMK A01 T02410102  RH  042%=      5-min Rain = 0
KTA1 071613Z 22010KT 24/11 A3004 RMK A01 T02400105  RH  042%=      5-min Rain = 0
KTA1 071614Z 22014KT 24/10 A3004 RMK A01 T02410104  RH  042%=      5-min Rain = 0
KTA1 071615Z 24012KT 24/11 A3004 RMK A01 T02420107  RH  043%=      5-min Rain = 0
KTA1 071616Z 24011KT 24/11 A3004 RMK A01 T02410108  RH  043%=      5-min Rain = 0
KTA1 071617Z 22011G16KT 24/11 A3004 RMK A01 T02430108  RH  043%=      5-min Rain = 0
KTA1 071618Z 23014KT 24/10 A3004 RMK A01 T02430097  RH  040%=      5-min Rain = 0
KTA1 071619Z 23012KT 25/10 A3004 RMK A01 T02450095  RH  039%=      5-min Rain = 0
KTA1 071620Z 23012KT 25/09 A3004 RMK A01 T02460090  RH  037%=      5-min Rain = 0
KTA1 071621Z 24013KT 25/09 A3004 RMK A01 T02470090  RH  037%=      5-min Rain = 0
KTA1 071622Z 25011KT 25/09 A3004 RMK A01 T02480087  RH  036%=      5-min Rain = 0
KTA1 071623Z 24009KT 25/09 A3004 RMK A01 T02460087  RH  036%=      5-min Rain = 0
KTA1 071624Z 23008KT 25/09 A3004 RMK A01 T02470088  RH  037%=      5-min Rain = 0
KTA1 071625Z 22010KT 25/09 A3004 RMK A01 T02480093  RH  038%=      5-min Rain = 0
KTA1 071626Z 22009KT 25/10 A3004 RMK A01 T02490096  RH  038%=      5-min Rain = 0
KTA1 071627Z 24009KT 25/10 A3004 RMK A01 T02520098  RH  038%=      5-min Rain = 0
KTA1 071628Z 25010KT 25/10 A3004 RMK A01 T02520101  RH  038%=      5-min Rain = 0
KTA1 071629Z 26009KT 25/10 A3004 RMK A01 T02500097  RH  038%=      5-min Rain = 0
KTA1 071630Z 24010KT 25/09 A3004 RMK A01 T02500092  RH  037%=      5-min Rain = 0
KTA1 071631Z 24012KT 25/10 A3004 RMK A01 T02510095  RH  037%=      5-min Rain = 0
KTA1 071632Z 23010KT 25/10 A3004 RMK A01 T02510098  RH  038%=      5-min Rain = 0
KTA1 071633Z 26010KT 25/09 A3004 RMK A01 T02480091  RH  037%=      5-min Rain = 0
KTA1 071634Z 26008KT 25/08 A3004 RMK A01 T02470079  RH  034%=      5-min Rain = 0
KTA1 071635Z 25011KT 25/08 A3004 RMK A01 T02480081  RH  034%=      5-min Rain = 0
KTA1 071636Z 25010KT 25/08 A3004 RMK A01 T02500081  RH  034%=      5-min Rain = 0
KTA1 071637Z 25010KT 25/08 A3004 RMK A01 T02500081  RH  034%=      5-min Rain = 0
KTA1 071638Z 24011KT 25/08 A3004 RMK A01 T02500081  RH  034%=      5-min Rain = 0
KTA1 071639Z 25011KT 25/08 A3004 RMK A01 T02500079  RH  034%=      5-min Rain = 0
KTA1 071640Z 26013KT 25/08 A3004 RMK A01 T02500080  RH  034%=      5-min Rain = 0
KTA1 071641Z 28010KT 25/08 A3004 RMK A01 T02500077  RH  033%=      5-min Rain = 0
KTA1 071642Z 26011KT 25/08 A3004 RMK A01 T02520079  RH  033%=      5-min Rain = 0
KTA1 071643Z 26012KT 25/08 A3004 RMK A01 T02530081  RH  033%=      5-min Rain = 0
KTA1 071644Z 27010KT 25/08 A3004 RMK A01 T02530078  RH  033%=      5-min Rain = 0
KTA1 071645Z 26008KT 25/08 A3004 RMK A01 T02510076  RH  033%=      5-min Rain = 0
KTA1 071646Z 26008KT 25/08 A3004 RMK A01 T02510076  RH  033%=      5-min Rain = 0
KTA1 071647Z 25011KT 25/08 A3003 RMK A01 T02540082  RH  033%=      5-min Rain = 0
KTA1 071648Z 25011KT 26/08 A3003 RMK A01 T02560076  RH  032%=      5-min Rain = 0
KTA1 071649Z 24011KT 25/07 A3003 RMK A01 T02540071  RH  031%=      5-min Rain = 0
KTA1 071650Z 24007KT 25/07 A3003 RMK A01 T02530068  RH  031%=      5-min Rain = 0
KTA1 071651Z 24008KT 25/07 A3003 RMK A01 T02520072  RH  032%=      5-min Rain = 0
KTA1 071652Z 25009KT 26/08 A3003 RMK A01 T02560078  RH  032%=      5-min Rain = 0
KTA1 071653Z 25008KT 26/08 A3003 RMK A01 T02570078  RH  032%=      5-min Rain = 0
KTA1 071654Z 24005KT 26/08 A3003 RMK A01 T02560077  RH  032%=      5-min Rain = 0
KTA1 071655Z 23009G14KT 26/08 A3003 RMK A01 T02550080  RH  033%=      5-min Rain = 0
KTA1 071656Z 23014KT 26/08 A3003 RMK A01 T02560081  RH  033%=      5-min Rain = 0
KTA1 071657Z 26009KT 26/08 A3003 RMK A01 T02570082  RH  033%=      5-min Rain = 0
KTA1 071658Z 26007KT 26/08 A3003 RMK A01 T02570080  RH  033%=      5-min Rain = 0
KTA1 071659Z 25008KT 26/08 A3003 RMK A01 T02570084  RH  033%=      5-min Rain = 0
KTA1 071700Z 25006KT 26/08 A3003 RMK A01 T02570078  RH  032%=      5-min Rain = 0
KTA1 071701Z 26007KT 25/08 A3003 RMK A01 T02540080  RH  033%=      5-min Rain = 0
KTA1 071702Z 25009KT 25/08 A3003 RMK A01 T02540077  RH  032%=      5-min Rain = 0
KTA1 071703Z 27009KT 26/07 A3003 RMK A01 T02560073  RH  031%=      5-min Rain = 0
KTA1 071704Z 26009KT 26/08 A3003 RMK A01 T02600078  RH  031%=      5-min Rain = 0
KTA1 071705Z 24010KT 26/08 A3003 RMK A01 T02630076  RH  031%=      5-min Rain = 0
KTA1 071706Z 24007KT 26/07 A3003 RMK A01 T02610069  RH  029%=      5-min Rain = 0
KTA1 071707Z 26006KT 26/06 A3003 RMK A01 T02570062  RH  029%=      5-min Rain = 0
KTA1 071708Z 28008KT 26/07 A3003 RMK A01 T02550070  RH  031%=      5-min Rain = 0
KTA1 071709Z 28008KT 26/06 A3003 RMK A01 T02580064  RH  029%=      5-min Rain = 0
KTA1 071710Z 25009KT 26/06 A3003 RMK A01 T02580062  RH  028%=      5-min Rain = 0
KTA1 071711Z 26011KT 26/06 A3003 RMK A01 T02590061  RH  028%=      5-min Rain = 0
KTA1 071712Z 27004KT 26/06 A3003 RMK A01 T02580057  RH  028%=      5-min Rain = 0
KTA1 071713Z 25004KT 26/07 A3003 RMK A01 T02570065  RH  029%=      5-min Rain = 0
KTA1 071714Z 27006KT 26/06 A3003 RMK A01 T02600063  RH  029%=      5-min Rain = 0
KTA1 071715Z 28010KT 26/06 A3003 RMK A01 T02610055  RH  027%=      5-min Rain = 0
KTA1 071716Z 24010KT 26/06 A3003 RMK A01 T02640058  RH  027%=      5-min Rain = 0
KTA1 071717Z 25009KT 26/06 A3003 RMK A01 T02640057  RH  026%=      5-min Rain = 0
KTA1 071718Z 25008KT 26/06 A3003 RMK A01 T02630062  RH  028%=      5-min Rain = 0
KTA1 071719Z 24010KT 26/07 A3003 RMK A01 T02640066  RH  028%=      5-min Rain = 0
KTA1 071720Z 24008KT 26/06 A3003 RMK A01 T02640059  RH  027%=      5-min Rain = 0
KTA1 071721Z 23008KT 26/05 A3002 RMK A01 T02610054  RH  027%=      5-min Rain = 0
KTA1 071722Z 22008KT 26/05 A3002 RMK A01 T02590054  RH  027%=      5-min Rain = 0
KTA1 071723Z 22009KT 26/05 A3002 RMK A01 T02600049  RH  026%=      5-min Rain = 0
KTA1 071724Z 23009KT 26/05 A3002 RMK A01 T02620051  RH  026%=      5-min Rain = 0
KTA1 071725Z 21008KT 26/06 A3002 RMK A01 T02630059  RH  027%=      5-min Rain = 0
KTA1 071726Z 21008KT 26/06 A3002 RMK A01 T02640055  RH  026%=      5-min Rain = 0
KTA1 071727Z 21008KT 26/06 A3002 RMK A01 T02640057  RH  027%=      5-min Rain = 0
KTA1 071728Z 22009KT 26/06 A3002 RMK A01 T02640056  RH  026%=      5-min Rain = 0
KTA1 071729Z 25008G14KT 26/05 A3002 RMK A01 T02630054  RH  026%=      5-min Rain = 0
KTA1 071730Z 27010KT 26/03 A3002 RMK A01 T02620032  RH  023%=      5-min Rain = 0
KTA1 071731Z 26008KT 26/02 A3002 RMK A01 T02630023  RH  021%=      5-min Rain = 0
KTA1 071732Z 27009KT 26/03 A3002 RMK A01 T02640027  RH  022%=      5-min Rain = 0
KTA1 071733Z 28009KT 27/03 A3002 RMK A01 T02660030  RH  022%=      5-min Rain = 0
KTA1 071734Z 27008KT 27/03 A3002 RMK A01 T02660027  RH  021%=      5-min Rain = 0
KTA1 071735Z 27006KT 26/03 A3002 RMK A01 T02640025  RH  021%=      5-min Rain = 0
KTA1 071736Z 29006KT 26/03 A3002 RMK A01 T02630028  RH  022%=      5-min Rain = 0
KTA1 071737Z 28007KT 26/03 A3002 RMK A01 T02630032  RH  022%=      5-min Rain = 0
KTA1 071738Z 28007KT 26/03 A3002 RMK A01 T02640034  RH  023%=      5-min Rain = 0
KTA1 071739Z 26006KT 27/03 A3002 RMK A01 T02660025  RH  021%=      5-min Rain = 0
KTA1 071740Z 25005KT 27/02 A3002 RMK A01 T02650019  RH  020%=      5-min Rain = 0
KTA1 071741Z 22002KT 26/02 A3002 RMK A01 T02640015  RH  020%=      5-min Rain = 0
KTA1 071742Z 25002KT 26/01 A3002 RMK A01 T02640013  RH  019%=      5-min Rain = 0
KTA1 071743Z 28006KT 26/01 A3002 RMK A01 T02640013  RH  020%=      5-min Rain = 0
KTA1 071744Z 28010KT 27/01 A3002 RMK A01 T02660008  RH  019%=      5-min Rain = 0
KTA1 071745Z 28006KT 27/01 A3002 RMK A01 T02670006  RH  018%=      5-min Rain = 0
KTA1 071746Z 23004KT 27/00 A3002 RMK A01 T02680002  RH  018%=      5-min Rain = 0
KTA1 071747Z 23004KT 27/00 A3002 RMK A01 T02670001  RH  018%=      5-min Rain = 0
KTA1 071748Z 24005KT 27/00 A3002 RMK A01 T02660004  RH  018%=      5-min Rain = 0
KTA1 071749Z 27007KT 27/01 A3002 RMK A01 T02660007  RH  018%=      5-min Rain = 0
KTA1 071750Z 27007KT 27/00 A3002 RMK A01 T02670000  RH  017%=      5-min Rain = 0
KTA1 071751Z 26005KT 27/00 A3002 RMK A01 T02660004  RH  018%=      5-min Rain = 0
KTA1 071752Z 26006KT 27/01 A3002 RMK A01 T02690010  RH  019%=      5-min Rain = 0
KTA1 071753Z 27003KT 27/M00 A3001 RMK A01 T02701004  RH  017%=      5-min Rain = 0
KTA1 071754Z 22001KT 27/M00 A3001 RMK A01 T02681003  RH  017%=      5-min Rain = 0
KTA1 071755Z 27004KT 27/01 A3001 RMK A01 T02690005  RH  018%=      5-min Rain = 0
KTA1 071756Z 27007KT 27/00 A3001 RMK A01 T02710001  RH  017%=      5-min Rain = 0
KTA1 071757Z 27008KT 27/01 A3001 RMK A01 T02730006  RH  018%=      5-min Rain = 0
KTA1 071758Z 26007KT 27/01 A3001 RMK A01 T02720006  RH  018%=      5-min Rain = 0
KTA1 071759Z 25006KT 27/01 A3002 RMK A01 T02700007  RH  018%=      5-min Rain = 0
KTA1 071800Z 29006KT 27/01 A3001 RMK A01 T02690005  RH  018%=      5-min Rain = 0
KTA1 071801Z 27009KT 27/00 A3002 RMK A01 T02690004  RH  018%=      5-min Rain = 0
KTA1 071802Z 25008KT 27/01 A3002 RMK A01 T02700007  RH  018%=      5-min Rain = 0
KTA1 071803Z 25008KT 27/01 A3002 RMK A01 T02700006  RH  018%=      5-min Rain = 0
KTA1 071804Z 24007KT 27/00 A3001 RMK A01 T02700002  RH  017%=      5-min Rain = 0
KTA1 071805Z 25006KT 27/00 A3001 RMK A01 T02690004  RH  018%=      5-min Rain = 0
KTA1 071806Z 30006KT 27/00 A3001 RMK A01 T02690002  RH  017%=      5-min Rain = 0
KTA1 071807Z 30004KT 27/00 A3001 RMK A01 T02700004  RH  018%=      5-min Rain = 0
KTA1 071808Z 26004KT 27/00 A3001 RMK A01 T02720004  RH  017%=      5-min Rain = 0
KTA1 071809Z 25004KT 27/01 A3001 RMK A01 T02720008  RH  018%=      5-min Rain = 0
KTA1 071810Z 24003KT 27/01 A3001 RMK A01 T02730007  RH  018%=      5-min Rain = 0
KTA1 071811Z 23006KT 27/01 A3001 RMK A01 T02730013  RH  019%=      5-min Rain = 0
KTA1 071812Z 24008KT 27/01 A3001 RMK A01 T02740013  RH  018%=      5-min Rain = 0
KTA1 071813Z 22005KT 27/01 A3001 RMK A01 T02730011  RH  018%=      5-min Rain = 0
KTA1 071814Z 24009KT 27/02 A3001 RMK A01 T02730015  RH  019%=      5-min Rain = 0
KTA1 071815Z 24005KT 27/01 A3001 RMK A01 T02730008  RH  018%=      5-min Rain = 0
KTA1 071816Z 25005KT 27/01 A3001 RMK A01 T02710009  RH  018%=      5-min Rain = 0
KTA1 071817Z 21009KT 27/00 A3001 RMK A01 T02710003  RH  017%=      5-min Rain = 0
KTA1 071818Z 23012KT 28/00 A3001 RMK A01 T02750004  RH  017%=      5-min Rain = 0
KTA1 071819Z 24012KT 28/01 A3001 RMK A01 T02780012  RH  018%=      5-min Rain = 0
KTA1 071820Z 23009KT 28/01 A3001 RMK A01 T02770006  RH  017%=      5-min Rain = 0
KTA1 071821Z 25006KT 27/00 A3001 RMK A01 T02730003  RH  017%=      5-min Rain = 0
KTA1 071822Z 26002KT 27/M00 A3001 RMK A01 T02711001  RH  017%=      5-min Rain = 0
KTA1 071823Z 22007KT 27/M00 A3001 RMK A01 T02711004  RH  016%=      5-min Rain = 0
KTA1 071824Z 23010KT 27/00 A3001 RMK A01 T02720001  RH  017%=      5-min Rain = 0
KTA1 071825Z 22009KT 27/00 A3001 RMK A01 T02730001  RH  017%=      5-min Rain = 0
KTA1 071826Z 21008KT 27/00 A3001 RMK A01 T02730002  RH  017%=      5-min Rain = 0
KTA1 071827Z 20006KT 27/00 A3001 RMK A01 T02730001  RH  017%=      5-min Rain = 0
KTA1 071828Z 20006KT 27/00 A3001 RMK A01 T02730002  RH  017%=      5-min Rain = 0
KTA1 071829Z 19004KT 27/01 A3001 RMK A01 T02740005  RH  017%=      5-min Rain = 0
KTA1 071830Z 24006KT 28/01 A3001 RMK A01 T02760008  RH  018%=      5-min Rain = 0
KTA1 071831Z 31006KT 28/00 A3001 RMK A01 T02760002  RH  017%=      5-min Rain = 0
KTA1 071832Z 28011KT 28/01 A3001 RMK A01 T02770005  RH  017%=      5-min Rain = 0
KTA1 071833Z 26009KT 28/01 A3001 RMK A01 T02780005  RH  017%=      5-min Rain = 0
KTA1 071834Z 27009KT 28/00 A3001 RMK A01 T02770003  RH  017%=      5-min Rain = 0
KTA1 071835Z 29009KT 28/00 A3001 RMK A01 T02770002  RH  017%=      5-min Rain = 0
KTA1 071836Z 29006KT 28/00 A3001 RMK A01 T02770003  RH  017%=      5-min Rain = 0
KTA1 071837Z 27007KT 28/M00 A30 RMK A01 T02781003  RH  016%=      5-min Rain = 0
KTA1 071838Z 28008KT 28/M00 A30 RMK A01 T02761001  RH  016%=      5-min Rain = 0
KTA1 071839Z 26010KT 28/M01 A30 RMK A01 T02761007  RH  016%=      5-min Rain = 0
KTA1 071840Z 27009KT 28/M01 A30 RMK A01 T02761010  RH  015%=      5-min Rain = 0
KTA1 071841Z 27008KT 28/M01 A30 RMK A01 T02761007  RH  016%=      5-min Rain = 0
KTA1 071842Z 26010KT 28/M00 A30 RMK A01 T02761001  RH  016%=      5-min Rain = 0
KTA1 071843Z 26011KT 28/M01 A30 RMK A01 T02781006  RH  016%=      5-min Rain = 0
KTA1 071844Z 26009KT 28/M00 A30 RMK A01 T02751004  RH  016%=      5-min Rain = 0
KTA1 071845Z 26006KT 27/M00 A30 RMK A01 T02741004  RH  016%=      5-min Rain = 0
KTA1 071846Z 26005KT 27/M00 A30 RMK A01 T02731001  RH  017%=      5-min Rain = 0
KTA1 071847Z 28004KT 28/00 A30 RMK A01 T02750002  RH  017%=      5-min Rain = 0
KTA1 071848Z 22004KT 28/00 A30 RMK A01 T02760001  RH  017%=      5-min Rain = 0
KTA1 071849Z 20007KT 28/00 A30 RMK A01 T02780003  RH  017%=      5-min Rain = 0
KTA1 071850Z 19007KT 28/01 A30 RMK A01 T02790007  RH  017%=      5-min Rain = 0
KTA1 071851Z 19006KT 28/M00 A30 RMK A01 T02811003  RH  016%=      5-min Rain = 0
KTA1 071852Z 17004KT 28/M00 A30 RMK A01 T02801004  RH  016%=      5-min Rain = 0
KTA1 071853Z 19004KT 28/M01 A30 RMK A01 T02801006  RH  016%=      5-min Rain = 0
KTA1 071854Z 22007G13KT 28/00 A30 RMK A01 T02790002  RH  017%=      5-min Rain = 0
KTA1 071855Z 24012KT 28/01 A30 RMK A01 T02790012  RH  018%=      5-min Rain = 0
KTA1 071856Z 24012KT 28/01 A30 RMK A01 T02790012  RH  018%=      5-min Rain = 0
KTA1 071857Z 24009KT 28/01 A30 RMK A01 T02770014  RH  018%=      5-min Rain = 0
KTA1 071858Z 21010KT 28/01 A30 RMK A01 T02770014  RH  018%=      5-min Rain = 0
KTA1 071859Z 20009KT 28/01 A30 RMK A01 T02780009  RH  017%=      5-min Rain = 0
KTA1 071900Z 21011KT 28/01 A30 RMK A01 T02780009  RH  017%=      5-min Rain = 0
KTA1 071901Z 22010KT 28/01 A30 RMK A01 T02780014  RH  018%=      5-min Rain = 0
KTA1 071902Z 22007KT 28/01 A30 RMK A01 T02800013  RH  018%=      5-min Rain = 0
KTA1 071903Z 24007KT 28/01 A30 RMK A01 T02800013  RH  018%=      5-min Rain = 0
KTA1 071904Z 21006KT 28/02 A30 RMK A01 T02800016  RH  018%=      5-min Rain = 0
KTA1 071905Z 22005KT 28/01 A30 RMK A01 T02810011  RH  017%=      5-min Rain = 0
KTA1 071906Z 22005KT 28/01 A30 RMK A01 T02800014  RH  018%=      5-min Rain = 0
KTA1 071907Z 22005KT 28/02 A30 RMK A01 T02810019  RH  018%=      5-min Rain = 0
KTA1 071908Z 25006KT 28/02 A30 RMK A01 T02830019  RH  018%=      5-min Rain = 0
KTA1 071909Z 26008KT 28/02 A30 RMK A01 T02830017  RH  018%=      5-min Rain = 0
KTA1 071910Z 27011KT 28/02 A30 RMK A01 T02840018  RH  018%=      5-min Rain = 0
KTA1 071911Z 26010KT 28/01 A30 RMK A01 T02830008  RH  017%=      5-min Rain = 0
KTA1 071912Z 28007KT 28/01 A30 RMK A01 T02780008  RH  017%=      5-min Rain = 0
KTA1 071913Z 29010KT 28/01 A30 RMK A01 T02770010  RH  018%=      5-min Rain = 0
KTA1 071914Z 29010KT 28/01 A30 RMK A01 T02800014  RH  018%=      5-min Rain = 0
KTA1 071915Z 29009G14KT 28/01 A30 RMK A01 T02820014  RH  018%=      5-min Rain = 0
KTA1 071916Z 29009KT 28/01 A30 RMK A01 T02840014  RH  017%=      5-min Rain = 0
KTA1 071917Z 28007KT 29/01 A30 RMK A01 T02850013  RH  017%=      5-min Rain = 0
KTA1 071918Z 31007KT 29/01 A30 RMK A01 T02850009  RH  017%=      5-min Rain = 0
KTA1 071919Z 30006KT 28/01 A30 RMK A01 T02820008  RH  017%=      5-min Rain = 0
KTA1 071920Z 26005KT 28/01 A30 RMK A01 T02800009  RH  017%=      5-min Rain = 0
KTA1 071921Z 26004KT 28/01 A30 RMK A01 T02790009  RH  017%=      5-min Rain = 0
KTA1 071922Z 21005G10KT 28/02 A2999 RMK A01 T02780016  RH  018%=      5-min Rain = 0
KTA1 071923Z 22011KT 28/02 A2999 RMK A01 T02800016  RH  018%=      5-min Rain = 0
KTA1 071924Z 22010KT 28/01 A2999 RMK A01 T02840014  RH  017%=      5-min Rain = 0
KTA1 071925Z 20008KT 28/01 A2999 RMK A01 T02840011  RH  017%=      5-min Rain = 0
KTA1 071926Z 20007KT 28/01 A2999 RMK A01 T02830014  RH  018%=      5-min Rain = 0
KTA1 071927Z 23009KT 28/01 A2999 RMK A01 T02840011  RH  017%=      5-min Rain = 0
KTA1 071928Z 25008KT 28/01 A2999 RMK A01 T02830012  RH  017%=      5-min Rain = 0
KTA1 071929Z 24004KT 28/01 A2999 RMK A01 T02800010  RH  017%=      5-min Rain = 0
KTA1 071930Z 22005KT 28/01 A2999 RMK A01 T02780011  RH  018%=      5-min Rain = 0
KTA1 071931Z 24004KT 28/01 A2999 RMK A01 T02780010  RH  018%=      5-min Rain = 0
KTA1 071932Z 21005KT 28/01 A2999 RMK A01 T02790014  RH  018%=      5-min Rain = 0
KTA1 071933Z 20010KT 28/02 A2999 RMK A01 T02820018  RH  018%=      5-min Rain = 0
KTA1 071934Z 19011KT 29/01 A2999 RMK A01 T02870013  RH  017%=      5-min Rain = 0
KTA1 071935Z 19010KT 29/01 A2999 RMK A01 T02890012  RH  017%=      5-min Rain = 0
KTA1 071936Z 20009KT 29/01 A2999 RMK A01 T02880007  RH  016%=      5-min Rain = 0
KTA1 071937Z 20009KT 29/01 A2999 RMK A01 T02850009  RH  017%=      5-min Rain = 0
KTA1 071938Z 19006KT 29/01 A2998 RMK A01 T02850007  RH  017%=      5-min Rain = 0
KTA1 071939Z 21007KT 29/01 A2998 RMK A01 T02850007  RH  016%=      5-min Rain = 0
KTA1 071940Z 23005KT 28/01 A2999 RMK A01 T02830009  RH  017%=      5-min Rain = 0
KTA1 071941Z 25010KT 28/01 A2998 RMK A01 T02840014  RH  018%=      5-min Rain = 0
KTA1 071942Z 26012KT 29/01 A2998 RMK A01 T02850010  RH  017%=      5-min Rain = 0
KTA1 071943Z 25012KT 29/01 A2998 RMK A01 T02850010  RH  017%=      5-min Rain = 0
KTA1 071944Z 25007KT 28/00 A2998 RMK A01 T02830002  RH  016%=      5-min Rain = 0
KTA1 071945Z 26006KT 28/01 A2998 RMK A01 T02800005  RH  017%=      5-min Rain = 0
KTA1 071946Z 24006KT 28/01 A2998 RMK A01 T02790007  RH  017%=      5-min Rain = 0
KTA1 071947Z 20008KT 28/01 A2998 RMK A01 T02810009  RH  017%=      5-min Rain = 0
KTA1 071948Z 20009G14KT 28/01 A2998 RMK A01 T02820010  RH  017%=      5-min Rain = 0
KTA1 071949Z 23012KT 29/02 A2998 RMK A01 T02860016  RH  018%=      5-min Rain = 0
KTA1 071950Z 25012KT 29/01 A2998 RMK A01 T02870010  RH  017%=      5-min Rain = 0
KTA1 071951Z 26010KT 28/01 A2998 RMK A01 T02840013  RH  017%=      5-min Rain = 0
KTA1 071952Z 24005KT 28/01 A2998 RMK A01 T02830010  RH  017%=      5-min Rain = 0
KTA1 071953Z 21008KT 28/01 A2998 RMK A01 T02820011  RH  017%=      5-min Rain = 0
KTA1 071954Z 22007KT 28/01 A2998 RMK A01 T02830008  RH  017%=      5-min Rain = 0
KTA1 071955Z 20005KT 28/01 A2998 RMK A01 T02830010  RH  017%=      5-min Rain = 0
KTA1 071956Z 21009KT 28/01 A2998 RMK A01 T02840006  RH  016%=      5-min Rain = 0
KTA1 071957Z 21012KT 28/01 A2997 RMK A01 T02840008  RH  017%=      5-min Rain = 0
KTA1 071958Z 22012G17KT 29/01 A2998 RMK A01 T02860012  RH  017%=      5-min Rain = 0
KTA1 071959Z 21011KT 29/01 A2998 RMK A01 T02870005  RH  016%=      5-min Rain = 0
KTA1 072000Z 20009KT 29/01 A2997 RMK A01 T02860012  RH  017%=      5-min Rain = 0
KTA1 072001Z 22007KT 29/02 A2997 RMK A01 T02900016  RH  017%=      5-min Rain = 0
KTA1 072002Z 24009G17KT 29/01 A2997 RMK A01 T02920013  RH  017%=      5-min Rain = 0
KTA1 072003Z 24015KT 29/01 A2997 RMK A01 T02910014  RH  017%=      5-min Rain = 0
KTA1 072004Z 24013KT 29/01 A2997 RMK A01 T02890012  RH  017%=      5-min Rain = 0
KTA1 072005Z 23013KT 29/02 A2997 RMK A01 T02880017  RH  017%=      5-min Rain = 0
KTA1 072006Z 24014KT 29/01 A2997 RMK A01 T02900014  RH  017%=      5-min Rain = 0
KTA1 072007Z 24011KT 29/01 A2997 RMK A01 T02880009  RH  016%=      5-min Rain = 0
KTA1 072008Z 23009KT 29/01 A2997 RMK A01 T02850009  RH  017%=      5-min Rain = 0
KTA1 072009Z 23011KT 28/01 A2997 RMK A01 T02830010  RH  017%=      5-min Rain = 0
KTA1 072010Z 23007KT 28/01 A2997 RMK A01 T02820005  RH  017%=      5-min Rain = 0
KTA1 072011Z 28004KT 28/01 A2997 RMK A01 T02810010  RH  017%=      5-min Rain = 0
KTA1 072012Z 28003KT 29/01 A2997 RMK A01 T02850008  RH  017%=      5-min Rain = 0
KTA1 072013Z 26006KT 29/01 A2997 RMK A01 T02850010  RH  017%=      5-min Rain = 0
KTA1 072014Z 23005KT 29/02 A2997 RMK A01 T02860016  RH  017%=      5-min Rain = 0
KTA1 072015Z 19009KT 29/01 A2997 RMK A01 T02880011  RH  017%=      5-min Rain = 0
KTA1 072016Z 22004KT 29/01 A2997 RMK A01 T02860007  RH  016%=      5-min Rain = 0
KTA1 072017Z 18007KT 29/01 A2996 RMK A01 T02850012  RH  017%=      5-min Rain = 0
KTA1 072018Z 17004KT 29/01 A2996 RMK A01 T02860013  RH  017%=      5-min Rain = 0
KTA1 072019Z 23008KT 29/02 A2997 RMK A01 T02890016  RH  017%=      5-min Rain = 0
KTA1 072020Z 25009KT 29/02 A2997 RMK A01 T02900017  RH  017%=      5-min Rain = 0
KTA1 072021Z 25007G13KT 29/01 A2996 RMK A01 T02890014  RH  017%=      5-min Rain = 0
KTA1 072022Z 27012KT 29/02 A2996 RMK A01 T02880016  RH  017%=      5-min Rain = 0
KTA1 072023Z 26009KT 29/02 A2996 RMK A01 T02870015  RH  017%=      5-min Rain = 0
KTA1 072024Z 26008KT 29/02 A2996 RMK A01 T02870015  RH  017%=      5-min Rain = 0
KTA1 072025Z 28006KT 29/02 A2996 RMK A01 T02870015  RH  017%=      5-min Rain = 0
KTA1 072026Z 29005KT 29/01 A2996 RMK A01 T02870014  RH  017%=      5-min Rain = 0
KTA1 072027Z 27004KT 29/01 A2996 RMK A01 T02870013  RH  017%=      5-min Rain = 0
KTA1 072028Z 26006KT 29/02 A2996 RMK A01 T02880015  RH  017%=      5-min Rain = 0
KTA1 072029Z 24009KT 29/01 A2996 RMK A01 T02880013  RH  017%=      5-min Rain = 0
KTA1 072030Z 24011KT 29/02 A2996 RMK A01 T02880020  RH  018%=      5-min Rain = 0
KTA1 072031Z 23012KT 29/02 A2996 RMK A01 T02880022  RH  018%=      5-min Rain = 0
KTA1 072032Z 24015KT 29/02 A2996 RMK A01 T02910024  RH  018%=      5-min Rain = 0
KTA1 072033Z 24010KT 29/02 A2996 RMK A01 T02900021  RH  018%=      5-min Rain = 0
KTA1 072034Z 24007KT 29/02 A2996 RMK A01 T02890020  RH  018%=      5-min Rain = 0
KTA1 072035Z 23009KT 29/02 A2996 RMK A01 T02890022  RH  018%=      5-min Rain = 0
KTA1 072036Z 21006KT 29/02 A2996 RMK A01 T02880018  RH  017%=      5-min Rain = 0
KTA1 072037Z 25003KT 29/02 A2996 RMK A01 T02880018  RH  018%=      5-min Rain = 0
KTA1 072038Z 26005KT 29/02 A2995 RMK A01 T02870018  RH  018%=      5-min Rain = 0
KTA1 072039Z 24005KT 29/02 A2995 RMK A01 T02870022  RH  018%=      5-min Rain = 0
KTA1 072040Z 26004KT 29/02 A2995 RMK A01 T02880018  RH  018%=      5-min Rain = 0
KTA1 072041Z 28003KT 29/02 A2995 RMK A01 T02880019  RH  018%=      5-min Rain = 0
KTA1 072042Z 24004KT 29/02 A2995 RMK A01 T02890018  RH  018%=      5-min Rain = 0
KTA1 072043Z 21004KT 29/02 A2995 RMK A01 T02880019  RH  018%=      5-min Rain = 0
KTA1 072044Z 21002KT 29/02 A2995 RMK A01 T02880017  RH  017%=      5-min Rain = 0
KTA1 072045Z 22010KT 29/02 A2995 RMK A01 T02880020  RH  018%=      5-min Rain = 0
KTA1 072046Z 22013KT 29/02 A2995 RMK A01 T02900016  RH  017%=      5-min Rain = 0
KTA1 072047Z 22010KT 29/02 A2995 RMK A01 T02900015  RH  017%=      5-min Rain = 0
KTA1 072048Z 22011KT 29/02 A2995 RMK A01 T02900020  RH  018%=      5-min Rain = 0
KTA1 072049Z 22012KT 29/01 A2995 RMK A01 T02910014  RH  017%=      5-min Rain = 0
KTA1 072050Z 22010KT 29/01 A2995 RMK A01 T02890013  RH  017%=      5-min Rain = 0
KTA1 072051Z 22012KT 29/01 A2995 RMK A01 T02880014  RH  017%=      5-min Rain = 0
KTA1 072052Z 22013KT 29/02 A2995 RMK A01 T02890017  RH  017%=      5-min Rain = 0
KTA1 072053Z 21010KT 29/02 A2995 RMK A01 T02900015  RH  017%=      5-min Rain = 0
KTA1 072054Z 19006KT 29/02 A2995 RMK A01 T02900015  RH  017%=      5-min Rain = 0
KTA1 072055Z 17006KT 29/02 A2995 RMK A01 T02900015  RH  017%=      5-min Rain = 0
KTA1 072056Z 19005KT 29/01 A2995 RMK A01 T02900012  RH  017%=      5-min Rain = 0
KTA1 072057Z 21009KT 29/01 A2995 RMK A01 T02890014  RH  017%=      5-min Rain = 0
KTA1 072058Z 20006KT 29/01 A2995 RMK A01 T02890014  RH  017%=      5-min Rain = 0
KTA1 072059Z 19007KT 29/02 A2994 RMK A01 T02880017  RH  017%=      5-min Rain = 0
KTA1 072100Z 19006KT 29/01 A2994 RMK A01 T02900014  RH  017%=      5-min Rain = 0
KTA1 072101Z 20010KT 29/02 A2994 RMK A01 T02890015  RH  017%=      5-min Rain = 0
KTA1 072102Z 20007KT 29/02 A2994 RMK A01 T02900016  RH  017%=      5-min Rain = 0
KTA1 072103Z 22004KT 29/02 A2994 RMK A01 T02910015  RH  017%=      5-min Rain = 0
KTA1 072104Z 24007G12KT 29/02 A2994 RMK A01 T02890015  RH  017%=      5-min Rain = 0
KTA1 072105Z 23009KT 29/02 A2994 RMK A01 T02890021  RH  018%=      5-min Rain = 0
KTA1 072106Z 24008KT 29/02 A2994 RMK A01 T02910022  RH  018%=      5-min Rain = 0
KTA1 072107Z 23008KT 29/03 A2994 RMK A01 T02920025  RH  018%=      5-min Rain = 0
KTA1 072108Z 23008KT 29/03 A2994 RMK A01 T02930027  RH  018%=      5-min Rain = 0
KTA1 072109Z 23009KT 29/03 A2994 RMK A01 T02940028  RH  018%=      5-min Rain = 0
KTA1 072110Z 20008KT 29/03 A2994 RMK A01 T02940025  RH  018%=      5-min Rain = 0
KTA1 072111Z 21010KT 29/03 A2994 RMK A01 T02930027  RH  018%=      5-min Rain = 0
KTA1 072112Z 22007KT 29/03 A2994 RMK A01 T02930027  RH  018%=      5-min Rain = 0
KTA1 072113Z 22006KT 29/03 A2994 RMK A01 T02920026  RH  018%=      5-min Rain = 0
KTA1 072114Z 24008KT 29/03 A2994 RMK A01 T02910027  RH  018%=      5-min Rain = 0
KTA1 072115Z 22011KT 29/02 A2994 RMK A01 T02910020  RH  017%=      5-min Rain = 0
KTA1 072116Z 22007KT 29/02 A2994 RMK A01 T02910016  RH  017%=      5-min Rain = 0
KTA1 072117Z 25012KT 29/02 A2994 RMK A01 T02930021  RH  017%=      5-min Rain = 0
KTA1 072118Z 25009KT 29/02 A2994 RMK A01 T02920018  RH  017%=      5-min Rain = 0
KTA1 072119Z 24009KT 29/02 A2994 RMK A01 T02920024  RH  018%=      5-min Rain = 0
KTA1 072120Z 24012KT 29/03 A2994 RMK A01 T02930033  RH  019%=      5-min Rain = 0
KTA1 072121Z 23011KT 30/03 A2994 RMK A01 T02950031  RH  018%=      5-min Rain = 0
KTA1 072122Z 23014KT 30/03 A2993 RMK A01 T02950026  RH  018%=      5-min Rain = 0
KTA1 072123Z 23013KT 29/02 A2993 RMK A01 T02940020  RH  017%=      5-min Rain = 0
KTA1 072124Z 22012KT 29/03 A2993 RMK A01 T02930025  RH  018%=      5-min Rain = 0
KTA1 072125Z 22011KT 30/03 A2993 RMK A01 T02950025  RH  018%=      5-min Rain = 0
KTA1 072126Z 21010KT 30/02 A2993 RMK A01 T02960023  RH  017%=      5-min Rain = 0
KTA1 072127Z 20010KT 30/02 A2993 RMK A01 T02950023  RH  018%=      5-min Rain = 0
KTA1 072128Z 19010KT 29/02 A2993 RMK A01 T02940023  RH  018%=      5-min Rain = 0
KTA1 072129Z 20009KT 29/02 A2993 RMK A01 T02930023  RH  018%=      5-min Rain = 0
KTA1 072130Z 23011KT 29/03 A2993 RMK A01 T02930028  RH  018%=      5-min Rain = 0
KTA1 072131Z 22012KT 29/03 A2993 RMK A01 T02940029  RH  018%=      5-min Rain = 0
KTA1 072132Z 21012KT 29/03 A2993 RMK A01 T02930027  RH  018%=      5-min Rain = 0
KTA1 072133Z 21011KT 29/03 A2993 RMK A01 T02910026  RH  018%=      5-min Rain = 0
KTA1 072134Z 21010KT 29/03 A2993 RMK A01 T02910025  RH  018%=      5-min Rain = 0
KTA1 072135Z 21010KT 29/03 A2993 RMK A01 T02890026  RH  018%=      5-min Rain = 0
KTA1 072136Z 20009KT 29/03 A2993 RMK A01 T02890025  RH  018%=      5-min Rain = 0
KTA1 072137Z 20006KT 29/03 A2993 RMK A01 T02880026  RH  019%=      5-min Rain = 0
KTA1 072138Z 24006KT 29/03 A2993 RMK A01 T02880029  RH  019%=      5-min Rain = 0
KTA1 072139Z 24006KT 29/03 A2993 RMK A01 T02890029  RH  019%=      5-min Rain = 0
KTA1 072140Z 23004KT 29/03 A2993 RMK A01 T02890027  RH  019%=      5-min Rain = 0
KTA1 072141Z 24005KT 29/03 A2993 RMK A01 T02880028  RH  019%=      5-min Rain = 0
KTA1 072142Z 22003KT 29/03 A2993 RMK A01 T02870027  RH  019%=      5-min Rain = 0
KTA1 072143Z 18004KT 29/03 A2993 RMK A01 T02870028  RH  019%=      5-min Rain = 0
KTA1 072144Z 17003KT 29/03 A2993 RMK A01 T02890027  RH  019%=      5-min Rain = 0
KTA1 072145Z 14002KT 29/03 A2993 RMK A01 T02910026  RH  018%=      5-min Rain = 0
KTA1 072146Z 19004KT 29/03 A2993 RMK A01 T02910026  RH  018%=      5-min Rain = 0
KTA1 072147Z 18008KT 29/03 A2993 RMK A01 T02910029  RH  019%=      5-min Rain = 0
KTA1 072148Z 17007KT 29/03 A2993 RMK A01 T02930027  RH  018%=      5-min Rain = 0
KTA1 072149Z 17007KT 29/03 A2993 RMK A01 T02930027  RH  018%=      5-min Rain = 0
KTA1 072150Z 20007KT 29/03 A2993 RMK A01 T02920027  RH  018%=      5-min Rain = 0
KTA1 072151Z 17004KT 29/03 A2993 RMK A01 T02910026  RH  018%=      5-min Rain = 0
KTA1 072152Z 20004KT 29/03 A2993 RMK A01 T02920031  RH  019%=      5-min Rain = 0
KTA1 072153Z 24009KT 29/03 A2993 RMK A01 T02940031  RH  019%=      5-min Rain = 0
KTA1 072154Z 24008KT 29/03 A2993 RMK A01 T02940030  RH  018%=      5-min Rain = 0
KTA1 072155Z 24008G13KT 29/03 A2993 RMK A01 T02920029  RH  019%=      5-min Rain = 0
KTA1 072156Z 22014KT 29/03 A2993 RMK A01 T02910030  RH  019%=      5-min Rain = 0
KTA1 072157Z 22013KT 29/03 A2993 RMK A01 T02920027  RH  018%=      5-min Rain = 0
KTA1 072158Z 23013KT 29/03 A2993 RMK A01 T02930025  RH  018%=      5-min Rain = 0
KTA1 072159Z 23009KT 29/02 A2993 RMK A01 T02910024  RH  018%=      5-min Rain = 0
KTA1 072200Z 22011KT 29/03 A2993 RMK A01 T02900027  RH  019%=      5-min Rain = 0
KTA1 072201Z 23010KT 29/03 A2993 RMK A01 T02900027  RH  019%=      5-min Rain = 0
KTA1 072202Z 24007KT 29/02 A2993 RMK A01 T02900024  RH  018%=      5-min Rain = 0
KTA1 072203Z 22008KT 29/02 A2993 RMK A01 T02880024  RH  018%=      5-min Rain = 0
KTA1 072204Z 23008KT 29/02 A2993 RMK A01 T02880024  RH  018%=      5-min Rain = 0
KTA1 072205Z 23006KT 29/02 A2993 RMK A01 T02870023  RH  018%=      5-min Rain = 0
KTA1 072206Z 26003KT 29/02 A2993 RMK A01 T02870022  RH  018%=      5-min Rain = 0
KTA1 072207Z 24004KT 29/02 A2993 RMK A01 T02870021  RH  018%=      5-min Rain = 0
KTA1 072208Z 21004G9KT 29/03 A2993 RMK A01 T02870026  RH  019%=      5-min Rain = 0
KTA1 072209Z 21006KT 29/02 A2993 RMK A01 T02890024  RH  018%=      5-min Rain = 0
KTA1 072210Z 20006KT 29/02 A2992 RMK A01 T02890023  RH  018%=      5-min Rain = 0
KTA1 072211Z 21007KT 29/03 A2993 RMK A01 T02890025  RH  018%=      5-min Rain = 0
KTA1 072212Z 19004KT 29/02 A2993 RMK A01 T02880023  RH  018%=      5-min Rain = 0
KTA1 072213Z 20008KT 29/03 A2992 RMK A01 T02880025  RH  018%=      5-min Rain = 0
KTA1 072214Z 21010KT 29/03 A2992 RMK A01 T02890025  RH  018%=      5-min Rain = 0
KTA1 072215Z 22008KT 29/03 A2992 RMK A01 T02910027  RH  018%=      5-min Rain = 0
KTA1 072216Z 23005KT 29/02 A2992 RMK A01 T02900024  RH  018%=      5-min Rain = 0
KTA1 072217Z 21006KT 29/03 A2992 RMK A01 T02900030  RH  019%=      5-min Rain = 0
KTA1 072218Z 19011KT 29/03 A2992 RMK A01 T02920028  RH  018%=      5-min Rain = 0
KTA1 072219Z 20009KT 29/02 A2992 RMK A01 T02920023  RH  018%=      5-min Rain = 0
KTA1 072220Z 17006KT 29/02 A2992 RMK A01 T02900021  RH  018%=      5-min Rain = 0
KTA1 072221Z 20003KT 29/02 A2992 RMK A01 T02880021  RH  018%=      5-min Rain = 0
KTA1 072222Z 23002KT 29/03 A2992 RMK A01 T02890025  RH  018%=      5-min Rain = 0
KTA1 072223Z 23004KT 29/03 A2992 RMK A01 T02900025  RH  018%=      5-min Rain = 0
KTA1 072224Z 21007KT 29/02 A2992 RMK A01 T02900024  RH  018%=      5-min Rain = 0
KTA1 072225Z 22012G17KT 29/03 A2992 RMK A01 T02910026  RH  018%=      5-min Rain = 0
KTA1 072226Z 22012KT 29/02 A2992 RMK A01 T02930024  RH  018%=      5-min Rain = 0
KTA1 072227Z 21009KT 29/03 A2992 RMK A01 T02930025  RH  018%=      5-min Rain = 0
KTA1 072228Z 21009KT 29/02 A2992 RMK A01 T02940023  RH  018%=      5-min Rain = 0
KTA1 072229Z 20011KT 30/02 A2992 RMK A01 T02950024  RH  018%=      5-min Rain = 0
KTA1 072230Z 20009KT 30/02 A2992 RMK A01 T02950024  RH  018%=      5-min Rain = 0
KTA1 072231Z 22008KT 30/03 A2992 RMK A01 T02960025  RH  018%=      5-min Rain = 0
KTA1 072232Z 23009KT 30/03 A2992 RMK A01 T02970026  RH  018%=      5-min Rain = 0
KTA1 072233Z 22012KT 30/03 A2992 RMK A01 T02970028  RH  018%=      5-min Rain = 0
KTA1 072234Z 19010KT 30/03 A2992 RMK A01 T02970026  RH  018%=      5-min Rain = 0
KTA1 072235Z 20007KT 30/02 A2992 RMK A01 T02970024  RH  017%=      5-min Rain = 0
KTA1 072236Z 22012KT 30/02 A2992 RMK A01 T02980022  RH  017%=      5-min Rain = 0
KTA1 072237Z 23012KT 30/02 A2992 RMK A01 T02960022  RH  017%=      5-min Rain = 0
KTA1 072238Z 22011KT 30/02 A2992 RMK A01 T02960023  RH  017%=      5-min Rain = 0
KTA1 072239Z 23012KT 30/02 A2992 RMK A01 T02980024  RH  017%=      5-min Rain = 0
KTA1 072240Z 22012KT 30/02 A2992 RMK A01 T02990024  RH  017%=      5-min Rain = 0
KTA1 072241Z 21014KT 30/02 A2992 RMK A01 T03010021  RH  017%=      5-min Rain = 0
KTA1 072242Z 21014KT 30/02 A2992 RMK A01 T02990017  RH  016%=      5-min Rain = 0
KTA1 072243Z 21010KT 30/02 A2992 RMK A01 T02960017  RH  017%=      5-min Rain = 0
KTA1 072244Z 20012KT 29/02 A2992 RMK A01 T02940019  RH  017%=      5-min Rain = 0
KTA1 072245Z 19010KT 30/02 A2992 RMK A01 T02950019  RH  017%=      5-min Rain = 0
KTA1 072246Z 21009KT 30/02 A2992 RMK A01 T02950019  RH  017%=      5-min Rain = 0
KTA1 072247Z 23010KT 30/02 A2992 RMK A01 T02960020  RH  017%=      5-min Rain = 0
KTA1 072248Z 19009KT 30/02 A2992 RMK A01 T02950019  RH  017%=      5-min Rain = 0
KTA1 072249Z 19009KT 29/02 A2992 RMK A01 T02940019  RH  017%=      5-min Rain = 0
KTA1 072250Z 19010G17KT 30/02 A2992 RMK A01 T02960020  RH  017%=      5-min Rain = 0
KTA1 072251Z 20010KT 30/02 A2992 RMK A01 T02960017  RH  017%=      5-min Rain = 0
KTA1 072252Z 20007KT 29/02 A2992 RMK A01 T02940018  RH  017%=      5-min Rain = 0
KTA1 072253Z 22009KT 29/02 A2992 RMK A01 T02940021  RH  017%=      5-min Rain = 0
KTA1 072254Z 23011KT 30/02 A2992 RMK A01 T02950017  RH  017%=      5-min Rain = 0
KTA1 072255Z 25008KT 29/02 A2992 RMK A01 T02940024  RH  018%=      5-min Rain = 0
KTA1 072256Z 25007KT 29/02 A2992 RMK A01 T02940017  RH  017%=      5-min Rain = 0
KTA1 072257Z 24008KT 29/02 A2992 RMK A01 T02940017  RH  017%=      5-min Rain = 0
KTA1 072258Z 23007KT 29/02 A2992 RMK A01 T02930018  RH  017%=      5-min Rain = 0
KTA1 072259Z 23009KT 29/02 A2992 RMK A01 T02930017  RH  017%=      5-min Rain = 0
KTA1 072300Z 23007KT 29/01 A2992 RMK A01 T02920013  RH  017%=      5-min Rain = 0
KTA1 072301Z 24006KT 29/02 A2992 RMK A01 T02910015  RH  017%=      5-min Rain = 0
KTA1 072302Z 24006KT 29/02 A2992 RMK A01 T02890015  RH  017%=      5-min Rain = 0
KTA1 072303Z 22006KT 29/02 A2992 RMK A01 T02890019  RH  018%=      5-min Rain = 0
KTA1 072304Z 21009KT 29/02 A2992 RMK A01 T02900020  RH  018%=      5-min Rain = 0
KTA1 072305Z 22010KT 29/02 A2992 RMK A01 T02910018  RH  017%=      5-min Rain = 0
KTA1 072306Z 21010KT 29/02 A2992 RMK A01 T02910015  RH  017%=      5-min Rain = 0
KTA1 072307Z 20011KT 29/02 A2992 RMK A01 T02900017  RH  017%=      5-min Rain = 0
KTA1 072308Z 22014KT 29/02 A2992 RMK A01 T02920021  RH  017%=      5-min Rain = 0
KTA1 072309Z 22011KT 29/02 A2992 RMK A01 T02940020  RH  017%=      5-min Rain = 0
KTA1 072310Z 21010G15KT 29/02 A2992 RMK A01 T02940022  RH  017%=      5-min Rain = 0
KTA1 072311Z 22012KT 30/02 A2992 RMK A01 T02970024  RH  017%=      5-min Rain = 0
KTA1 072312Z 22013KT 30/02 A2992 RMK A01 T02980019  RH  017%=      5-min Rain = 0
KTA1 072313Z 23011KT 30/02 A2992 RMK A01 T02970021  RH  017%=      5-min Rain = 0
KTA1 072314Z 23014KT 30/02 A2992 RMK A01 T02970020  RH  017%=      5-min Rain = 0
KTA1 072315Z 23013KT 30/02 A2992 RMK A01 T02960021  RH  017%=      5-min Rain = 0
KTA1 072316Z 24012KT 30/02 A2992 RMK A01 T02950020  RH  017%=      5-min Rain = 0
KTA1 072317Z 23011KT 29/02 A2992 RMK A01 T02940019  RH  017%=      5-min Rain = 0
KTA1 072318Z 26010KT 29/02 A2992 RMK A01 T02930020  RH  017%=      5-min Rain = 0
KTA1 072319Z 25007KT 29/02 A2992 RMK A01 T02930020  RH  017%=      5-min Rain = 0
KTA1 072320Z 23007KT 29/02 A2992 RMK A01 T02920020  RH  017%=      5-min Rain = 0
KTA1 072321Z 24007KT 29/02 A2992 RMK A01 T02920020  RH  017%=      5-min Rain = 0
KTA1 072322Z 24009KT 29/02 A2992 RMK A01 T02920021  RH  018%=      5-min Rain = 0
KTA1 072323Z 24008KT 29/02 A2992 RMK A01 T02910021  RH  018%=      5-min Rain = 0
KTA1 072324Z 23006KT 29/02 A2992 RMK A01 T02910022  RH  018%=      5-min Rain = 0
KTA1 072325Z 22006KT 29/02 A2992 RMK A01 T02910023  RH  018%=      5-min Rain = 0
KTA1 072326Z 21005KT 29/02 A2992 RMK A01 T02910021  RH  018%=      5-min Rain = 0
KTA1 072327Z 21007KT 29/02 A2992 RMK A01 T02910021  RH  018%=      5-min Rain = 0
KTA1 072328Z 22010KT 29/02 A2992 RMK A01 T02900020  RH  018%=      5-min Rain = 0
KTA1 072329Z 21008KT 29/02 A2992 RMK A01 T02900020  RH  018%=      5-min Rain = 0
KTA1 072330Z 21007KT 29/02 A2992 RMK A01 T02900020  RH  018%=      5-min Rain = 0
KTA1 072331Z 23005KT 29/02 A2992 RMK A01 T02900023  RH  018%=      5-min Rain = 0
KTA1 072332Z 22005KT 29/03 A2992 RMK A01 T02930026  RH  018%=      5-min Rain = 0
KTA1 072333Z 22005KT 29/02 A2992 RMK A01 T02940020  RH  017%=      5-min Rain = 0
KTA1 072334Z 21007KT 29/02 A2992 RMK A01 T02940023  RH  018%=      5-min Rain = 0
KTA1 072335Z 22008KT 29/02 A2992 RMK A01 T02940022  RH  017%=      5-min Rain = 0
KTA1 072336Z 23009KT 29/02 A2992 RMK A01 T02940024  RH  018%=      5-min Rain = 0
KTA1 072337Z 24011KT 29/02 A2992 RMK A01 T02930021  RH  018%=      5-min Rain = 0
KTA1 072338Z 23009KT 29/02 A2992 RMK A01 T02910023  RH  018%=      5-min Rain = 0
KTA1 072339Z 23010KT 29/02 A2992 RMK A01 T02910022  RH  018%=      5-min Rain = 0
KTA1 072340Z 22015KT 29/02 A2992 RMK A01 T02910020  RH  018%=      5-min Rain = 0
KTA1 072341Z 22012KT 29/02 A2992 RMK A01 T02900018  RH  017%=      5-min Rain = 0
KTA1 072342Z 22010KT 29/02 A2992 RMK A01 T02900020  RH  018%=      5-min Rain = 0
KTA1 072343Z 22010KT 29/02 A2992 RMK A01 T02900021  RH  018%=      5-min Rain = 0
KTA1 072344Z 22010KT 29/02 A2992 RMK A01 T02900023  RH  018%=      5-min Rain = 0
KTA1 072345Z 22011KT 29/02 A2992 RMK A01 T02910021  RH  018%=      5-min Rain = 0
KTA1 072346Z 22012KT 29/02 A2992 RMK A01 T02910023  RH  018%=      5-min Rain = 0
KTA1 072347Z 21012KT 29/02 A2992 RMK A01 T02910022  RH  018%=      5-min Rain = 0
KTA1 072348Z 22011KT 29/02 A2992 RMK A01 T02910021  RH  018%=      5-min Rain = 0
KTA1 072349Z 22013KT 29/02 A2992 RMK A01 T02910023  RH  018%=      5-min Rain = 0
KTA1 072350Z 21013KT 29/02 A2992 RMK A01 T02900021  RH  018%=      5-min Rain = 0
KTA1 072351Z 21012KT 29/02 A2992 RMK A01 T02890019  RH  018%=      5-min Rain = 0
KTA1 072352Z 21011KT 29/02 A2992 RMK A01 T02880019  RH  018%=      5-min Rain = 0
KTA1 072353Z 21011KT 29/02 A2992 RMK A01 T02870021  RH  018%=      5-min Rain = 0
KTA1 072354Z 22009KT 29/02 A2992 RMK A01 T02880022  RH  018%=      5-min Rain = 0
KTA1 072355Z 22013KT 29/03 A2992 RMK A01 T02880026  RH  019%=      5-min Rain = 0
KTA1 072356Z 23012KT 29/03 A2992 RMK A01 T02890025  RH  018%=      5-min Rain = 0
KTA1 072357Z 22011KT 29/02 A2992 RMK A01 T02880023  RH  018%=      5-min Rain = 0
KTA1 072358Z 22011KT 29/02 A2992 RMK A01 T02880023  RH  018%=      5-min Rain = 0
KTA1 072359Z 23011G16KT 29/03 A2992 RMK A01 T02880027  RH  019%=      5-min Rain = 0
KTA1 080000Z 23011KT 29/03 A2992 RMK A01 T02860031  RH  020%=      5-min Rain = 0
KTA1 080001Z 22010KT 28/03 A2992 RMK A01 T02840031  RH  020%=      5-min Rain = 0
KTA1 080002Z 22009KT 28/03 A2992 RMK A01 T02840032  RH  020%=      5-min Rain = 0
KTA1 080003Z 22011KT 28/03 A2992 RMK A01 T02840034  RH  020%=      5-min Rain = 0
KTA1 080004Z 22010KT 28/03 A2992 RMK A01 T02840032  RH  020%=      5-min Rain = 0
KTA1 080005Z 21009KT 29/03 A2992 RMK A01 T02850032  RH  020%=      5-min Rain = 0
KTA1 080006Z 22009KT 29/03 A2992 RMK A01 T02850029  RH  019%=      5-min Rain = 0
KTA1 080007Z 23007KT 28/03 A2992 RMK A01 T02840030  RH  020%=      5-min Rain = 0
KTA1 080008Z 22009KT 28/04 A2992 RMK A01 T02840035  RH  020%=      5-min Rain = 0
KTA1 080009Z 22009KT 28/04 A2992 RMK A01 T02830038  RH  021%=      5-min Rain = 0
KTA1 080010Z 22009KT 28/04 A2992 RMK A01 T02810038  RH  021%=      5-min Rain = 0
KTA1 080011Z 21008KT 28/03 A2992 RMK A01 T02800034  RH  021%=      5-min Rain = 0
KTA1 080012Z 22008KT 28/03 A2992 RMK A01 T02790034  RH  021%=      5-min Rain = 0
KTA1 080013Z 20008KT 28/03 A2992 RMK A01 T02800034  RH  021%=      5-min Rain = 0
KTA1 080014Z 20009KT 28/03 A2992 RMK A01 T02800033  RH  020%=      5-min Rain = 0
KTA1 080015Z 21009KT 28/03 A2992 RMK A01 T02810031  RH  020%=      5-min Rain = 0
KTA1 080016Z 20008KT 28/03 A2992 RMK A01 T02810031  RH  020%=      5-min Rain = 0
KTA1 080017Z 20007KT 28/03 A2992 RMK A01 T02810032  RH  020%=      5-min Rain = 0
KTA1 080018Z 20007KT 28/03 A2992 RMK A01 T02810033  RH  020%=      5-min Rain = 0
KTA1 080019Z 20008KT 28/03 A2992 RMK A01 T02810033  RH  020%=      5-min Rain = 0
KTA1 080020Z 21009KT 28/03 A2992 RMK A01 T02810032  RH  020%=      5-min Rain = 0
KTA1 080021Z 21008KT 28/03 A2992 RMK A01 T02800033  RH  020%=      5-min Rain = 0
KTA1 080022Z 21008KT 28/04 A2992 RMK A01 T02790035  RH  021%=      5-min Rain = 0
KTA1 080023Z 22006KT 28/04 A2992 RMK A01 T02790036  RH  021%=      5-min Rain = 0
KTA1 080024Z 21006KT 28/04 A2992 RMK A01 T02780038  RH  021%=      5-min Rain = 0
KTA1 080025Z 21007KT 28/04 A2992 RMK A01 T02780038  RH  021%=      5-min Rain = 0
KTA1 080026Z 20007KT 28/04 A2992 RMK A01 T02780038  RH  021%=      5-min Rain = 0
KTA1 080027Z 19007KT 28/04 A2992 RMK A01 T02780039  RH  022%=      5-min Rain = 0
KTA1 080028Z 20008KT 28/04 A2992 RMK A01 T02790039  RH  022%=      5-min Rain = 0
KTA1 080029Z 19007KT 28/04 A2992 RMK A01 T02780040  RH  022%=      5-min Rain = 0
KTA1 080030Z 19009KT 28/04 A2992 RMK A01 T02780041  RH  022%=      5-min Rain = 0
KTA1 080031Z 19008KT 28/04 A2992 RMK A01 T02780041  RH  022%=      5-min Rain = 0
KTA1 080032Z 20009KT 28/04 A2992 RMK A01 T02780041  RH  022%=      5-min Rain = 0
KTA1 080033Z 19010KT 28/04 A2992 RMK A01 T02770040  RH  022%=      5-min Rain = 0
KTA1 080034Z 19010KT 28/04 A2992 RMK A01 T02780040  RH  022%=      5-min Rain = 0
KTA1 080035Z 19008KT 28/04 A2992 RMK A01 T02780040  RH  022%=      5-min Rain = 0
KTA1 080036Z 19008KT 28/04 A2992 RMK A01 T02780041  RH  022%=      5-min Rain = 0
KTA1 080037Z 20006KT 28/04 A2992 RMK A01 T02770042  RH  022%=      5-min Rain = 0
KTA1 080038Z 21006KT 28/04 A2992 RMK A01 T02770043  RH  022%=      5-min Rain = 0
KTA1 080039Z 21006KT 28/04 A2992 RMK A01 T02770044  RH  022%=      5-min Rain = 0
KTA1 080040Z 21006KT 28/04 A2992 RMK A01 T02770044  RH  022%=      5-min Rain = 0
KTA1 080041Z 22005KT 28/04 A2992 RMK A01 T02770044  RH  023%=      5-min Rain = 0
KTA1 080042Z 22006KT 28/05 A2992 RMK A01 T02760045  RH  023%=      5-min Rain = 0
KTA1 080043Z 22006KT 28/05 A2992 RMK A01 T02750045  RH  023%=      5-min Rain = 0
KTA1 080044Z 21006KT 27/05 A2992 RMK A01 T02740047  RH  023%=      5-min Rain = 0
KTA1 080045Z 21007KT 27/05 A2992 RMK A01 T02720046  RH  023%=      5-min Rain = 0
KTA1 080046Z 21007KT 27/04 A2992 RMK A01 T02720044  RH  023%=      5-min Rain = 0
KTA1 080047Z 20007KT 27/04 A2992 RMK A01 T02710042  RH  023%=      5-min Rain = 0
KTA1 080048Z 20007KT 27/04 A2992 RMK A01 T02710043  RH  023%=      5-min Rain = 0
KTA1 080049Z 20006KT 27/04 A2992 RMK A01 T02710044  RH  023%=      5-min Rain = 0
KTA1 080050Z 20006KT 27/04 A2992 RMK A01 T02700043  RH  023%=      5-min Rain = 0
KTA1 080051Z 19007KT 27/04 A2992 RMK A01 T02690043  RH  023%=      5-min Rain = 0
KTA1 080052Z 19007KT 27/04 A2992 RMK A01 T02680042  RH  023%=      5-min Rain = 0
KTA1 080053Z 20007KT 27/04 A2992 RMK A01 T02680042  RH  023%=      5-min Rain = 0
KTA1 080054Z 20007KT 27/04 A2992 RMK A01 T02670042  RH  024%=      5-min Rain = 0
KTA1 080055Z 21006KT 27/04 A2992 RMK A01 T02670042  RH  024%=      5-min Rain = 0
KTA1 080056Z 21006KT 27/04 A2992 RMK A01 T02660042  RH  024%=      5-min Rain = 0
KTA1 080057Z 21006KT 27/04 A2992 RMK A01 T02660043  RH  024%=      5-min Rain = 0
KTA1 080058Z 21006KT 27/04 A2992 RMK A01 T02650044  RH  024%=      5-min Rain = 0
KTA1 080059Z 21006KT 26/04 A2992 RMK A01 T02640044  RH  024%=      5-min Rain = 0
KTA1 080100Z 21006KT 26/04 A2992 RMK A01 T02630044  RH  024%=      5-min Rain = 0
KTA1 080101Z 21005KT 26/05 A2992 RMK A01 T02630045  RH  025%=      5-min Rain = 0
KTA1 080102Z 21005KT 26/05 A2992 RMK A01 T02620045  RH  025%=      5-min Rain = 0
KTA1 080103Z 20006KT 26/05 A2992 RMK A01 T02610046  RH  025%=      5-min Rain = 0
KTA1 080104Z 20006KT 26/05 A2992 RMK A01 T02600047  RH  025%=      5-min Rain = 0
KTA1 080105Z 20006KT 26/05 A2992 RMK A01 T02580047  RH  026%=      5-min Rain = 0
KTA1 080106Z 20006KT 26/05 A2992 RMK A01 T02570047  RH  026%=      5-min Rain = 0
KTA1 080107Z 20006KT 26/05 A2993 RMK A01 T02560048  RH  026%=      5-min Rain = 0
KTA1 080108Z 20007KT 26/05 A2993 RMK A01 T02550048  RH  026%=      5-min Rain = 0
KTA1 080109Z 20006KT 25/05 A2993 RMK A01 T02540048  RH  026%=      5-min Rain = 0
KTA1 080110Z 20006KT 25/05 A2993 RMK A01 T02540048  RH  027%=      5-min Rain = 0
KTA1 080111Z 20006KT 25/05 A2993 RMK A01 T02530047  RH  027%=      5-min Rain = 0
KTA1 080112Z 21006KT 25/05 A2993 RMK A01 T02520048  RH  027%=      5-min Rain = 0
KTA1 080113Z 21006KT 25/05 A2993 RMK A01 T02510048  RH  027%=      5-min Rain = 0
KTA1 080114Z 20006KT 25/05 A2993 RMK A01 T02500048  RH  027%=      5-min Rain = 0
KTA1 080115Z 20006KT 25/05 A2993 RMK A01 T02500048  RH  027%=      5-min Rain = 0
KTA1 080116Z 21006KT 25/05 A2993 RMK A01 T02490048  RH  027%=      5-min Rain = 0
KTA1 080117Z 21006KT 25/05 A2993 RMK A01 T02480048  RH  028%=      5-min Rain = 0
KTA1 080118Z 22007KT 25/05 A2993 RMK A01 T02470049  RH  028%=      5-min Rain = 0
KTA1 080119Z 22007KT 25/05 A2993 RMK A01 T02470050  RH  028%=      5-min Rain = 0
KTA1 080120Z 22005KT 25/05 A2993 RMK A01 T02470051  RH  028%=      5-min Rain = 0
KTA1 080121Z 21006KT 25/05 A2993 RMK A01 T02460051  RH  028%=      5-min Rain = 0
KTA1 080122Z 21006KT 25/05 A2993 RMK A01 T02450051  RH  029%=      5-min Rain = 0
KTA1 080123Z 21006KT 24/05 A2993 RMK A01 T02440052  RH  029%=      5-min Rain = 0
KTA1 080124Z 21006KT 24/05 A2993 RMK A01 T02430052  RH  029%=      5-min Rain = 0
KTA1 080125Z 21007KT 24/05 A2993 RMK A01 T02420053  RH  029%=      5-min Rain = 0
KTA1 080126Z 21007KT 24/05 A2993 RMK A01 T02410053  RH  030%=      5-min Rain = 0
KTA1 080127Z 20006KT 24/05 A2993 RMK A01 T02400054  RH  030%=      5-min Rain = 0
KTA1 080128Z 20006KT 24/06 A2993 RMK A01 T02390055  RH  030%=      5-min Rain = 0
KTA1 080129Z 20006KT 24/06 A2993 RMK A01 T02380055  RH  031%=      5-min Rain = 0
KTA1 080130Z 20006KT 24/06 A2994 RMK A01 T02370055  RH  031%=      5-min Rain = 0
KTA1 080131Z 20006KT 24/06 A2994 RMK A01 T02360055  RH  031%=      5-min Rain = 0
KTA1 080132Z 20006KT 24/06 A2994 RMK A01 T02350056  RH  031%=      5-min Rain = 0
KTA1 080133Z 20006KT 23/06 A2994 RMK A01 T02340056  RH  032%=      5-min Rain = 0
KTA1 080134Z 20007KT 23/06 A2994 RMK A01 T02340056  RH  032%=      5-min Rain = 0
KTA1 080135Z 20007KT 23/06 A2994 RMK A01 T02330057  RH  032%=      5-min Rain = 0
KTA1 080136Z 20007KT 23/06 A2994 RMK A01 T02320056  RH  032%=      5-min Rain = 0
KTA1 080137Z 20007KT 23/06 A2994 RMK A01 T02320056  RH  032%=      5-min Rain = 0
KTA1 080138Z 20006KT 23/06 A2994 RMK A01 T02320056  RH  032%=      5-min Rain = 0
KTA1 080139Z 21007KT 23/06 A2994 RMK A01 T02320056  RH  032%=      5-min Rain = 0
KTA1 080140Z 21007KT 23/06 A2994 RMK A01 T02320056  RH  032%=      5-min Rain = 0
KTA1 080141Z 22006KT 23/06 A2994 RMK A01 T02320057  RH  032%=      5-min Rain = 0
KTA1 080142Z 22007KT 23/06 A2994 RMK A01 T02320058  RH  032%=      5-min Rain = 0
KTA1 080143Z 22006KT 23/06 A2994 RMK A01 T02310058  RH  032%=      5-min Rain = 0
KTA1 080144Z 22007KT 23/06 A2994 RMK A01 T02320058  RH  033%=      5-min Rain = 0
KTA1 080145Z 22006KT 23/06 A2994 RMK A01 T02310059  RH  033%=      5-min Rain = 0
KTA1 080146Z 21007KT 23/06 A2994 RMK A01 T02310059  RH  033%=      5-min Rain = 0
KTA1 080147Z 21006KT 23/06 A2994 RMK A01 T02300059  RH  033%=      5-min Rain = 0
KTA1 080148Z 22007KT 23/06 A2994 RMK A01 T02300059  RH  033%=      5-min Rain = 0
KTA1 080149Z 22007KT 23/06 A2994 RMK A01 T02300059  RH  033%=      5-min Rain = 0
KTA1 080150Z 22007KT 23/06 A2994 RMK A01 T02300059  RH  033%=      5-min Rain = 0
KTA1 080151Z 21007KT 23/06 A2994 RMK A01 T02300059  RH  033%=      5-min Rain = 0
KTA1 080152Z 22008KT 23/06 A2994 RMK A01 T02300059  RH  033%=      5-min Rain = 0
KTA1 080153Z 22008KT 23/06 A2995 RMK A01 T02310059  RH  033%=      5-min Rain = 0
KTA1 080154Z 22007KT 23/06 A2995 RMK A01 T02310059  RH  033%=      5-min Rain = 0
KTA1 080155Z 21007KT 23/06 A2995 RMK A01 T02310059  RH  033%=      5-min Rain = 0
KTA1 080156Z 21007KT 23/06 A2995 RMK A01 T02320059  RH  033%=      5-min Rain = 0
KTA1 080157Z 21006KT 23/06 A2995 RMK A01 T02320059  RH  033%=      5-min Rain = 0
KTA1 080158Z 22006KT 23/06 A2995 RMK A01 T02320060  RH  033%=      5-min Rain = 0
KTA1 080159Z 23005KT 23/06 A2995 RMK A01 T02310060  RH  033%=      5-min Rain = 0
KTA1 080200Z 22005KT 23/06 A2995 RMK A01 T02290062  RH  034%=      5-min Rain = 0
KTA1 080201Z 22006KT 23/06 A2995 RMK A01 T02250062  RH  035%=      5-min Rain = 0
KTA1 080202Z 22007KT 22/06 A2995 RMK A01 T02220062  RH  035%=      5-min Rain = 0
KTA1 080203Z 22007KT 22/06 A2995 RMK A01 T02200062  RH  036%=      5-min Rain = 0
KTA1 080204Z 22007KT 22/06 A2995 RMK A01 T02190062  RH  036%=      5-min Rain = 0
KTA1 080205Z 22006KT 22/06 A2995 RMK A01 T02190062  RH  036%=      5-min Rain = 0
KTA1 080206Z 22006KT 22/06 A2995 RMK A01 T02180063  RH  037%=      5-min Rain = 0
KTA1 080207Z 22006KT 22/06 A2995 RMK A01 T02160062  RH  037%=      5-min Rain = 0
KTA1 080208Z 22005KT 22/06 A2995 RMK A01 T02160063  RH  037%=      5-min Rain = 0
KTA1 080209Z 22005KT 22/06 A2995 RMK A01 T02150063  RH  037%=      5-min Rain = 0
KTA1 080210Z 22005KT 21/06 A2995 RMK A01 T02140064  RH  038%=      5-min Rain = 0
KTA1 080211Z 22006KT 21/06 A2995 RMK A01 T02120063  RH  038%=      5-min Rain = 0
KTA1 080212Z 22005KT 21/06 A2995 RMK A01 T02120064  RH  038%=      5-min Rain = 0
KTA1 080213Z 22005KT 21/06 A2995 RMK A01 T02110063  RH  038%=      5-min Rain = 0
KTA1 080214Z 22005KT 21/07 A2995 RMK A01 T02100065  RH  039%=      5-min Rain = 0
KTA1 080215Z 22006KT 21/07 A2995 RMK A01 T02090066  RH  040%=      5-min Rain = 0
KTA1 080216Z 22005KT 21/07 A2995 RMK A01 T02080067  RH  040%=      5-min Rain = 0
KTA1 080217Z 22005KT 21/07 A2995 RMK A01 T02070068  RH  040%=      5-min Rain = 0
KTA1 080218Z 22006KT 21/07 A2995 RMK A01 T02070069  RH  041%=      5-min Rain = 0
KTA1 080219Z 22006KT 21/07 A2995 RMK A01 T02060069  RH  041%=      5-min Rain = 0
KTA1 080220Z 22006KT 21/07 A2995 RMK A01 T02050069  RH  041%=      5-min Rain = 0
KTA1 080221Z 22006KT 21/07 A2995 RMK A01 T02050069  RH  041%=      5-min Rain = 0
KTA1 080222Z 22005KT 21/07 A2995 RMK A01 T02050069  RH  041%=      5-min Rain = 0
KTA1 080223Z 22005KT 20/07 A2995 RMK A01 T02040069  RH  042%=      5-min Rain = 0
KTA1 080224Z 22005KT 20/07 A2995 RMK A01 T02040069  RH  042%=      5-min Rain = 0
KTA1 080225Z 22005KT 20/07 A2995 RMK A01 T02040069  RH  042%=      5-min Rain = 0
KTA1 080226Z 22006KT 20/07 A2995 RMK A01 T02040069  RH  042%=      5-min Rain = 0
KTA1 080227Z 22006KT 20/07 A2995 RMK A01 T02030068  RH  041%=      5-min Rain = 0
KTA1 080228Z 22006KT 20/07 A2995 RMK A01 T02030068  RH  041%=      5-min Rain = 0
KTA1 080229Z 22005KT 20/07 A2995 RMK A01 T02030068  RH  041%=      5-min Rain = 0
KTA1 080230Z 21005KT 20/07 A2995 RMK A01 T02030069  RH  042%=      5-min Rain = 0
KTA1 080231Z 21005KT 20/07 A2995 RMK A01 T02020069  RH  042%=      5-min Rain = 0
KTA1 080232Z 21005KT 20/07 A2995 RMK A01 T02020068  RH  042%=      5-min Rain = 0
KTA1 080233Z 21005KT 20/07 A2995 RMK A01 T02020067  RH  041%=      5-min Rain = 0
KTA1 080234Z 21005KT 20/07 A2995 RMK A01 T02020065  RH  041%=      5-min Rain = 0
KTA1 080235Z 21005KT 20/06 A2995 RMK A01 T02020064  RH  041%=      5-min Rain = 0
KTA1 080236Z 20006KT 20/06 A2996 RMK A01 T02020063  RH  040%=      5-min Rain = 0
KTA1 080237Z 20006KT 20/06 A2996 RMK A01 T02020063  RH  040%=      5-min Rain = 0
KTA1 080238Z 21006KT 20/06 A2996 RMK A01 T02010063  RH  041%=      5-min Rain = 0
KTA1 080239Z 20006KT 20/06 A2996 RMK A01 T02010063  RH  041%=      5-min Rain = 0
KTA1 080240Z 20006KT 20/06 A2996 RMK A01 T02010064  RH  041%=      5-min Rain = 0
KTA1 080241Z 20006KT 20/06 A2996 RMK A01 T02010063  RH  041%=      5-min Rain = 0
KTA1 080242Z 20005KT 20/06 A2996 RMK A01 T02010063  RH  041%=      5-min Rain = 0
KTA1 080243Z 20005KT 20/06 A2996 RMK A01 T02000062  RH  041%=      5-min Rain = 0
KTA1 080244Z 20006KT 20/06 A2996 RMK A01 T02010062  RH  040%=      5-min Rain = 0
KTA1 080245Z 20006KT 20/06 A2996 RMK A01 T02000063  RH  041%=      5-min Rain = 0
KTA1 080246Z 20006KT 20/06 A2996 RMK A01 T02000063  RH  041%=      5-min Rain = 0
KTA1 080247Z 20006KT 20/06 A2996 RMK A01 T01990064  RH  041%=      5-min Rain = 0
KTA1 080248Z 21005KT 20/07 A2996 RMK A01 T01980065  RH  042%=      5-min Rain = 0
KTA1 080249Z 21006KT 20/06 A2996 RMK A01 T01970064  RH  042%=      5-min Rain = 0
KTA1 080250Z 21006KT 20/06 A2996 RMK A01 T01970064  RH  042%=      5-min Rain = 0
KTA1 080251Z 21007KT 20/06 A2996 RMK A01 T01980062  RH  041%=      5-min Rain = 0
KTA1 080252Z 21007KT 20/06 A2996 RMK A01 T01990063  RH  041%=      5-min Rain = 0
KTA1 080253Z 20007KT 20/06 A2996 RMK A01 T02000063  RH  041%=      5-min Rain = 0
KTA1 080254Z 20006KT 20/06 A2996 RMK A01 T01990063  RH  041%=      5-min Rain = 0
KTA1 080255Z 20006KT 20/06 A2996 RMK A01 T01990063  RH  041%=      5-min Rain = 0
KTA1 080256Z 20007KT 20/06 A2996 RMK A01 T01980063  RH  041%=      5-min Rain = 0
KTA1 080257Z 20006KT 20/06 A2996 RMK A01 T01970062  RH  041%=      5-min Rain = 0
KTA1 080258Z 20007KT 20/06 A2996 RMK A01 T01960063  RH  042%=      5-min Rain = 0
KTA1 080259Z 20007KT 20/06 A2996 RMK A01 T01960063  RH  042%=      5-min Rain = 0
KTA1 080300Z 20007KT 20/06 A2996 RMK A01 T01950063  RH  042%=      5-min Rain = 0
KTA1 080301Z 20007KT 19/06 A2996 RMK A01 T01940063  RH  042%=      5-min Rain = 0
KTA1 080302Z 20007KT 19/06 A2996 RMK A01 T01940063  RH  042%=      5-min Rain = 0
KTA1 080303Z 20007KT 19/06 A2996 RMK A01 T01940062  RH  042%=      5-min Rain = 0
KTA1 080304Z 20007KT 19/06 A2996 RMK A01 T01940062  RH  042%=      5-min Rain = 0
KTA1 080305Z 20007KT 20/06 A2996 RMK A01 T01950061  RH  042%=      5-min Rain = 0
KTA1 080306Z 20007KT 20/06 A2996 RMK A01 T01960061  RH  041%=      5-min Rain = 0
KTA1 080307Z 20007KT 20/06 A2996 RMK A01 T01960061  RH  041%=      5-min Rain = 0
KTA1 080308Z 20007KT 20/06 A2996 RMK A01 T01970061  RH  041%=      5-min Rain = 0
KTA1 080309Z 21007KT 20/06 A2996 RMK A01 T01980062  RH  041%=      5-min Rain = 0
KTA1 080310Z 21007KT 20/06 A2996 RMK A01 T01980062  RH  041%=      5-min Rain = 0
KTA1 080311Z 21007KT 20/06 A2997 RMK A01 T01980062  RH  041%=      5-min Rain = 0
KTA1 080312Z 21008KT 20/06 A2997 RMK A01 T01980062  RH  041%=      5-min Rain = 0
KTA1 080313Z 21008KT 20/06 A2997 RMK A01 T01980062  RH  041%=      5-min Rain = 0
KTA1 080314Z 21008KT 20/06 A2997 RMK A01 T01980061  RH  041%=      5-min Rain = 0
KTA1 080315Z 21008KT 20/06 A2997 RMK A01 T01980062  RH  041%=      5-min Rain = 0
KTA1 080316Z 21008KT 20/06 A2997 RMK A01 T01980061  RH  041%=      5-min Rain = 0
KTA1 080317Z 21008KT 20/06 A2997 RMK A01 T01980062  RH  041%=      5-min Rain = 0
KTA1 080318Z 21008KT 20/06 A2997 RMK A01 T01980062  RH  041%=      5-min Rain = 0
KTA1 080319Z 21008KT 20/06 A2997 RMK A01 T01980062  RH  041%=      5-min Rain = 0
KTA1 080320Z 21008KT 20/06 A2997 RMK A01 T01980061  RH  041%=      5-min Rain = 0
KTA1 080321Z 21007KT 20/06 A2997 RMK A01 T01980061  RH  041%=      5-min Rain = 0
KTA1 080322Z 21008KT 20/06 A2997 RMK A01 T01980061  RH  041%=      5-min Rain = 0
KTA1 080323Z 21007KT 20/06 A2997 RMK A01 T01980061  RH  041%=      5-min Rain = 0
KTA1 080324Z 21007KT 20/06 A2997 RMK A01 T01980061  RH  041%=      5-min Rain = 0
KTA1 080325Z 21008KT 20/06 A2997 RMK A01 T01980060  RH  041%=      5-min Rain = 0
KTA1 080326Z 21008KT 20/06 A2997 RMK A01 T01980060  RH  041%=      5-min Rain = 0
KTA1 080327Z 21008KT 20/06 A2997 RMK A01 T01980060  RH  040%=      5-min Rain = 0
KTA1 080328Z 22007KT 20/06 A2997 RMK A01 T01980060  RH  040%=      5-min Rain = 0
KTA1 080329Z 22007KT 20/06 A2997 RMK A01 T01970059  RH  040%=      5-min Rain = 0
KTA1 080330Z 22007KT 20/06 A2997 RMK A01 T01970059  RH  040%=      5-min Rain = 0
KTA1 080331Z 22007KT 20/06 A2997 RMK A01 T01970059  RH  040%=      5-min Rain = 0
KTA1 080332Z 22006KT 20/06 A2997 RMK A01 T01970058  RH  040%=      5-min Rain = 0
KTA1 080333Z 22006KT 20/06 A2997 RMK A01 T01970057  RH  040%=      5-min Rain = 0
KTA1 080334Z 22006KT 20/06 A2997 RMK A01 T01970057  RH  040%=      5-min Rain = 0
KTA1 080335Z 22005KT 20/06 A2997 RMK A01 T01980058  RH  040%=      5-min Rain = 0
KTA1 080336Z 23005KT 20/06 A2997 RMK A01 T01980060  RH  040%=      5-min Rain = 0
KTA1 080337Z 23006KT 20/06 A2997 RMK A01 T01970063  RH  042%=      5-min Rain = 0
KTA1 080338Z 23007KT 20/06 A2997 RMK A01 T01950064  RH  042%=      5-min Rain = 0
KTA1 080339Z 23007KT 19/06 A2997 RMK A01 T01940064  RH  043%=      5-min Rain = 0
KTA1 080340Z 23007KT 19/06 A2997 RMK A01 T01930064  RH  043%=      5-min Rain = 0
KTA1 080341Z 23008KT 19/06 A2997 RMK A01 T01930064  RH  043%=      5-min Rain = 0
KTA1 080342Z 23007KT 19/06 A2997 RMK A01 T01920064  RH  043%=      5-min Rain = 0
KTA1 080343Z 23007KT 19/07 A2997 RMK A01 T01920065  RH  043%=      5-min Rain = 0
KTA1 080344Z 23007KT 19/06 A2997 RMK A01 T01910064  RH  043%=      5-min Rain = 0
KTA1 080345Z 23007KT 19/06 A2997 RMK A01 T01900063  RH  043%=      5-min Rain = 0
KTA1 080346Z 24007KT 19/06 A2997 RMK A01 T01900063  RH  044%=      5-min Rain = 0
KTA1 080347Z 24007KT 19/06 A2997 RMK A01 T01900064  RH  044%=      5-min Rain = 0
KTA1 080348Z 24007KT 19/06 A2997 RMK A01 T01890063  RH  044%=      5-min Rain = 0
KTA1 080349Z 24007KT 19/06 A2997 RMK A01 T01890063  RH  044%=      5-min Rain = 0
KTA1 080350Z 24006KT 19/06 A2997 RMK A01 T01880063  RH  044%=      5-min Rain = 0
KTA1 080351Z 23005KT 19/07 A2997 RMK A01 T01880065  RH  045%=      5-min Rain = 0
KTA1 080352Z 23006KT 19/07 A2997 RMK A01 T01860066  RH  045%=      5-min Rain = 0
KTA1 080353Z 24007KT 19/07 A2997 RMK A01 T01850066  RH  046%=      5-min Rain = 0
KTA1 080354Z 24007KT 18/07 A2997 RMK A01 T01840067  RH  046%=      5-min Rain = 0
KTA1 080355Z 24007KT 18/07 A2997 RMK A01 T01830067  RH  047%=      5-min Rain = 0
KTA1 080356Z 24007KT 18/07 A2997 RMK A01 T01830067  RH  047%=      5-min Rain = 0
KTA1 080357Z 24007KT 18/07 A2997 RMK A01 T01820068  RH  047%=      5-min Rain = 0
KTA1 080358Z 23006KT 18/07 A2997 RMK A01 T01820067  RH  047%=      5-min Rain = 0
KTA1 080359Z 22005KT 18/07 A2997 RMK A01 T01810066  RH  047%=      5-min Rain = 0
KTA1 080400Z 23007KT 18/07 A2997 RMK A01 T01800066  RH  047%=      5-min Rain = 0
KTA1 080401Z 23007KT 18/07 A2997 RMK A01 T01790066  RH  047%=      5-min Rain = 0
KTA1 080402Z 24007KT 18/07 A2997 RMK A01 T01790065  RH  047%=      5-min Rain = 0
KTA1 080403Z 24006KT 18/07 A2997 RMK A01 T01800066  RH  047%=      5-min Rain = 0
KTA1 080404Z 23006KT 18/07 A2997 RMK A01 T01800065  RH  047%=      5-min Rain = 0
KTA1 080405Z 23006KT 18/07 A2997 RMK A01 T01810065  RH  046%=      5-min Rain = 0
KTA1 080406Z 23006KT 18/06 A2997 RMK A01 T01810064  RH  046%=      5-min Rain = 0
KTA1 080407Z 24006KT 18/07 A2997 RMK A01 T01810065  RH  047%=      5-min Rain = 0
KTA1 080408Z 24007KT 18/06 A2997 RMK A01 T01810064  RH  046%=      5-min Rain = 0
KTA1 080409Z 24007KT 18/06 A2997 RMK A01 T01810064  RH  046%=      5-min Rain = 0
KTA1 080410Z 24006KT 18/06 A2997 RMK A01 T01810064  RH  046%=      5-min Rain = 0
KTA1 080411Z 24006KT 18/06 A2997 RMK A01 T01810064  RH  046%=      5-min Rain = 0
KTA1 080412Z 24006KT 18/06 A2997 RMK A01 T01810064  RH  046%=      5-min Rain = 0
KTA1 080413Z 24006KT 18/07 A2997 RMK A01 T01810065  RH  047%=      5-min Rain = 0
KTA1 080414Z 24006KT 18/07 A2997 RMK A01 T01810065  RH  047%=      5-min Rain = 0
KTA1 080415Z 24006KT 18/07 A2997 RMK A01 T01810065  RH  047%=      5-min Rain = 0
KTA1 080416Z 24006KT 18/07 A2997 RMK A01 T01810065  RH  047%=      5-min Rain = 0
KTA1 080417Z 24006KT 18/07 A2997 RMK A01 T01800065  RH  047%=      5-min Rain = 0
KTA1 080418Z 24006KT 18/07 A2997 RMK A01 T01800065  RH  047%=      5-min Rain = 0
KTA1 080419Z 24006KT 18/07 A2997 RMK A01 T01800065  RH  047%=      5-min Rain = 0
KTA1 080420Z 24006KT 18/07 A2997 RMK A01 T01800065  RH  047%=      5-min Rain = 0
KTA1 080421Z 24007KT 18/07 A2997 RMK A01 T01800066  RH  047%=      5-min Rain = 0
KTA1 080422Z 24007KT 18/07 A2997 RMK A01 T01790066  RH  047%=      5-min Rain = 0
KTA1 080423Z 24007KT 18/07 A2997 RMK A01 T01790066  RH  048%=      5-min Rain = 0
KTA1 080424Z 24007KT 18/07 A2997 RMK A01 T01790067  RH  048%=      5-min Rain = 0
KTA1 080425Z 24007KT 18/07 A2997 RMK A01 T01780067  RH  048%=      5-min Rain = 0
KTA1 080426Z 24007KT 18/07 A2997 RMK A01 T01780067  RH  048%=      5-min Rain = 0
KTA1 080427Z 24007KT 18/07 A2997 RMK A01 T01770067  RH  048%=      5-min Rain = 0
KTA1 080428Z 24006KT 18/07 A2997 RMK A01 T01770067  RH  049%=      5-min Rain = 0
KTA1 080429Z 24006KT 18/07 A2997 RMK A01 T01770068  RH  049%=      5-min Rain = 0
KTA1 080430Z 24006KT 18/07 A2997 RMK A01 T01760069  RH  049%=      5-min Rain = 0
KTA1 080431Z 17006KT 18/07 A2997 RMK A01 T01750069  RH  050%=      5-min Rain = 0
KTA1 080432Z 21004KT 17/07 A2997 RMK A01 T01730067  RH  050%=      5-min Rain = 0
KTA1 080433Z 23004KT 17/07 A2997 RMK A01 T01740066  RH  049%=      5-min Rain = 0
KTA1 080434Z 23005KT 18/07 A2997 RMK A01 T01760066  RH  049%=      5-min Rain = 0
KTA1 080435Z 21005KT 18/07 A2997 RMK A01 T01780066  RH  048%=      5-min Rain = 0
KTA1 080436Z 20005KT 18/07 A2997 RMK A01 T01790066  RH  048%=      5-min Rain = 0
KTA1 080437Z 21005KT 18/07 A2997 RMK A01 T01790065  RH  047%=      5-min Rain = 0
KTA1 080438Z 23005KT 18/06 A2997 RMK A01 T01790064  RH  047%=      5-min Rain = 0
KTA1 080439Z 25006KT 18/06 A2997 RMK A01 T01790064  RH  047%=      5-min Rain = 0
KTA1 080440Z 24005KT 18/07 A2997 RMK A01 T01790066  RH  048%=      5-min Rain = 0
KTA1 080441Z 25006KT 18/07 A2997 RMK A01 T01790067  RH  048%=      5-min Rain = 0
KTA1 080442Z 25006KT 18/07 A2997 RMK A01 T01780067  RH  048%=      5-min Rain = 0
KTA1 080443Z 25007KT 18/07 A2997 RMK A01 T01780069  RH  049%=      5-min Rain = 0
KTA1 080444Z 25007KT 18/07 A2997 RMK A01 T01770071  RH  050%=      5-min Rain = 0
KTA1 080445Z 25007KT 18/07 A2997 RMK A01 T01760071  RH  050%=      5-min Rain = 0
KTA1 080446Z 24006KT 18/07 A2997 RMK A01 T01760073  RH  051%=      5-min Rain = 0
KTA1 080447Z 24006KT 18/07 A2997 RMK A01 T01750074  RH  051%=      5-min Rain = 0
KTA1 080448Z 24007KT 18/08 A2997 RMK A01 T01750075  RH  052%=      5-min Rain = 0
KTA1 080449Z 24007KT 17/08 A2997 RMK A01 T01740075  RH  052%=      5-min Rain = 0
KTA1 080450Z 24007KT 17/08 A2997 RMK A01 T01730076  RH  053%=      5-min Rain = 0
KTA1 080451Z 24007KT 17/08 A2997 RMK A01 T01720076  RH  053%=      5-min Rain = 0
KTA1 080452Z 24007KT 17/08 A2997 RMK A01 T01720076  RH  053%=      5-min Rain = 0
KTA1 080453Z 24006KT 17/08 A2997 RMK A01 T01710076  RH  054%=      5-min Rain = 0
KTA1 080454Z 23007KT 17/08 A2997 RMK A01 T01710076  RH  053%=      5-min Rain = 0
KTA1 080455Z 23007KT 17/08 A2997 RMK A01 T01700075  RH  053%=      5-min Rain = 0
KTA1 080456Z 23007KT 17/07 A2997 RMK A01 T01700074  RH  053%=      5-min Rain = 0
KTA1 080457Z 23007KT 17/07 A2997 RMK A01 T01700074  RH  053%=      5-min Rain = 0
KTA1 080458Z 23007KT 17/07 A2997 RMK A01 T01700073  RH  053%=      5-min Rain = 0
KTA1 080459Z 23007KT 17/07 A2997 RMK A01 T01700072  RH  053%=      5-min Rain = 0

Page generated in 0.0698 seconds.